<?xml version="1.0" encoding="UTF-8" standalone="no" ?>
<gpx xmlns="http://www.topografix.com/GPX/1/1" xmlns:xsi="http://www.w3.org/2001/XMLSchema-instance" xsi:schemaLocation="http://www.topografix.com/GPX/1/1 http://www.topografix.com/GPX/1/1/gpx.xsd" version="1.1" creator="VisuGPX - https://www.visugpx.com">
  <metadata>
    <name>2009 LAGAHL</name>
    <desc><![CDATA[Lozère-Aveyron-Gard-Ardèche-Haute Loire]]></desc>
  </metadata>
  <trk>
    <name><![CDATA[A01]]></name>
    <trkseg>
      <trkpt lat="44.81475" lon="3.44106">
        <ele>1173</ele>
        <time>2009-07-06T06:36:32Z</time>
      </trkpt>
      <trkpt lat="44.81475" lon="3.44106">
        <ele>1177</ele>
        <time>2009-07-06T06:36:33Z</time>
      </trkpt>
      <trkpt lat="44.81475" lon="3.44106">
        <ele>1176</ele>
        <time>2009-07-06T06:36:34Z</time>
      </trkpt>
      <trkpt lat="44.81475" lon="3.44104">
        <ele>1176</ele>
        <time>2009-07-06T06:37:45Z</time>
      </trkpt>
      <trkpt lat="44.81478" lon="3.44106">
        <ele>1176</ele>
        <time>2009-07-06T06:40:07Z</time>
      </trkpt>
      <trkpt lat="44.81481" lon="3.44105">
        <ele>1172</ele>
        <time>2009-07-06T06:44:36Z</time>
      </trkpt>
      <trkpt lat="44.8148" lon="3.44105">
        <ele>1174</ele>
        <time>2009-07-06T06:44:45Z</time>
      </trkpt>
      <trkpt lat="44.81481" lon="3.4411">
        <ele>1176</ele>
        <time>2009-07-06T06:45:26Z</time>
      </trkpt>
      <trkpt lat="44.81481" lon="3.44111">
        <ele>1177</ele>
        <time>2009-07-06T06:46:07Z</time>
      </trkpt>
      <trkpt lat="44.8148" lon="3.44111">
        <ele>1176</ele>
        <time>2009-07-06T06:47:29Z</time>
      </trkpt>
      <trkpt lat="44.8148" lon="3.44112">
        <ele>1176</ele>
        <time>2009-07-06T06:47:38Z</time>
      </trkpt>
      <trkpt lat="44.81489" lon="3.44131">
        <ele>1178</ele>
        <time>2009-07-06T06:47:48Z</time>
      </trkpt>
      <trkpt lat="44.81489" lon="3.44136">
        <ele>1178</ele>
        <time>2009-07-06T06:47:50Z</time>
      </trkpt>
      <trkpt lat="44.81478" lon="3.44185">
        <ele>1176</ele>
        <time>2009-07-06T06:48:03Z</time>
      </trkpt>
      <trkpt lat="44.81478" lon="3.44186">
        <ele>1177</ele>
        <time>2009-07-06T06:48:34Z</time>
      </trkpt>
      <trkpt lat="44.81473" lon="3.44211">
        <ele>1175</ele>
        <time>2009-07-06T06:48:44Z</time>
      </trkpt>
      <trkpt lat="44.81464" lon="3.44245">
        <ele>1172</ele>
        <time>2009-07-06T06:48:49Z</time>
      </trkpt>
      <trkpt lat="44.81458" lon="3.44261">
        <ele>1170</ele>
        <time>2009-07-06T06:48:51Z</time>
      </trkpt>
      <trkpt lat="44.81449" lon="3.44277">
        <ele>1170</ele>
        <time>2009-07-06T06:48:53Z</time>
      </trkpt>
      <trkpt lat="44.81425" lon="3.44305">
        <ele>1168</ele>
        <time>2009-07-06T06:48:57Z</time>
      </trkpt>
      <trkpt lat="44.81403" lon="3.44346">
        <ele>1168</ele>
        <time>2009-07-06T06:49:03Z</time>
      </trkpt>
      <trkpt lat="44.81403" lon="3.4436">
        <ele>1168</ele>
        <time>2009-07-06T06:49:05Z</time>
      </trkpt>
      <trkpt lat="44.81397" lon="3.44428">
        <ele>1165</ele>
        <time>2009-07-06T06:49:16Z</time>
      </trkpt>
      <trkpt lat="44.81394" lon="3.44441">
        <ele>1166</ele>
        <time>2009-07-06T06:49:18Z</time>
      </trkpt>
      <trkpt lat="44.81376" lon="3.44465">
        <ele>1165</ele>
        <time>2009-07-06T06:49:24Z</time>
      </trkpt>
      <trkpt lat="44.8134" lon="3.44499">
        <ele>1167</ele>
        <time>2009-07-06T06:49:37Z</time>
      </trkpt>
      <trkpt lat="44.8132" lon="3.44535">
        <ele>1170</ele>
        <time>2009-07-06T06:49:50Z</time>
      </trkpt>
      <trkpt lat="44.81319" lon="3.44538">
        <ele>1171</ele>
        <time>2009-07-06T06:49:51Z</time>
      </trkpt>
      <trkpt lat="44.81298" lon="3.44549">
        <ele>1174</ele>
        <time>2009-07-06T06:50:03Z</time>
      </trkpt>
      <trkpt lat="44.81281" lon="3.44568">
        <ele>1177</ele>
        <time>2009-07-06T06:50:14Z</time>
      </trkpt>
      <trkpt lat="44.81261" lon="3.446">
        <ele>1181</ele>
        <time>2009-07-06T06:50:30Z</time>
      </trkpt>
      <trkpt lat="44.81259" lon="3.44604">
        <ele>1181</ele>
        <time>2009-07-06T06:50:32Z</time>
      </trkpt>
      <trkpt lat="44.81236" lon="3.44634">
        <ele>1184</ele>
        <time>2009-07-06T06:50:49Z</time>
      </trkpt>
      <trkpt lat="44.81211" lon="3.44671">
        <ele>1186</ele>
        <time>2009-07-06T06:51:08Z</time>
      </trkpt>
      <trkpt lat="44.81209" lon="3.44675">
        <ele>1187</ele>
        <time>2009-07-06T06:51:10Z</time>
      </trkpt>
      <trkpt lat="44.81183" lon="3.44701">
        <ele>1189</ele>
        <time>2009-07-06T06:51:26Z</time>
      </trkpt>
      <trkpt lat="44.81151" lon="3.44728">
        <ele>1193</ele>
        <time>2009-07-06T06:51:45Z</time>
      </trkpt>
      <trkpt lat="44.8112" lon="3.44747">
        <ele>1196</ele>
        <time>2009-07-06T06:52:01Z</time>
      </trkpt>
      <trkpt lat="44.81088" lon="3.44773">
        <ele>1198</ele>
        <time>2009-07-06T06:52:19Z</time>
      </trkpt>
      <trkpt lat="44.81054" lon="3.44814">
        <ele>1199</ele>
        <time>2009-07-06T06:52:38Z</time>
      </trkpt>
      <trkpt lat="44.81018" lon="3.44843">
        <ele>1200</ele>
        <time>2009-07-06T06:52:55Z</time>
      </trkpt>
      <trkpt lat="44.80973" lon="3.44869">
        <ele>1203</ele>
        <time>2009-07-06T06:53:16Z</time>
      </trkpt>
      <trkpt lat="44.8094" lon="3.44893">
        <ele>1206</ele>
        <time>2009-07-06T06:53:32Z</time>
      </trkpt>
      <trkpt lat="44.80916" lon="3.44916">
        <ele>1207</ele>
        <time>2009-07-06T06:53:49Z</time>
      </trkpt>
      <trkpt lat="44.80893" lon="3.44933">
        <ele>1208</ele>
        <time>2009-07-06T06:54:01Z</time>
      </trkpt>
      <trkpt lat="44.80856" lon="3.4494">
        <ele>1207</ele>
        <time>2009-07-06T06:54:15Z</time>
      </trkpt>
      <trkpt lat="44.80832" lon="3.44953">
        <ele>1206</ele>
        <time>2009-07-06T06:54:21Z</time>
      </trkpt>
      <trkpt lat="44.80805" lon="3.44979">
        <ele>1208</ele>
        <time>2009-07-06T06:54:31Z</time>
      </trkpt>
      <trkpt lat="44.80773" lon="3.45013">
        <ele>1210</ele>
        <time>2009-07-06T06:54:48Z</time>
      </trkpt>
      <trkpt lat="44.80751" lon="3.45037">
        <ele>1213</ele>
        <time>2009-07-06T06:55:00Z</time>
      </trkpt>
      <trkpt lat="44.80734" lon="3.45073">
        <ele>1214</ele>
        <time>2009-07-06T06:55:13Z</time>
      </trkpt>
      <trkpt lat="44.80717" lon="3.4512">
        <ele>1216</ele>
        <time>2009-07-06T06:55:29Z</time>
      </trkpt>
      <trkpt lat="44.80696" lon="3.45153">
        <ele>1217</ele>
        <time>2009-07-06T06:55:42Z</time>
      </trkpt>
      <trkpt lat="44.80666" lon="3.4518">
        <ele>1219</ele>
        <time>2009-07-06T06:55:55Z</time>
      </trkpt>
      <trkpt lat="44.80635" lon="3.45201">
        <ele>1218</ele>
        <time>2009-07-06T06:56:06Z</time>
      </trkpt>
      <trkpt lat="44.80604" lon="3.45212">
        <ele>1219</ele>
        <time>2009-07-06T06:56:18Z</time>
      </trkpt>
      <trkpt lat="44.8059" lon="3.45223">
        <ele>1222</ele>
        <time>2009-07-06T06:56:24Z</time>
      </trkpt>
      <trkpt lat="44.80578" lon="3.45232">
        <ele>1223</ele>
        <time>2009-07-06T06:56:31Z</time>
      </trkpt>
      <trkpt lat="44.80555" lon="3.45252">
        <ele>1225</ele>
        <time>2009-07-06T06:56:44Z</time>
      </trkpt>
      <trkpt lat="44.80527" lon="3.45277">
        <ele>1228</ele>
        <time>2009-07-06T06:57:00Z</time>
      </trkpt>
      <trkpt lat="44.80505" lon="3.45295">
        <ele>1229</ele>
        <time>2009-07-06T06:57:13Z</time>
      </trkpt>
      <trkpt lat="44.80489" lon="3.45308">
        <ele>1231</ele>
        <time>2009-07-06T06:57:22Z</time>
      </trkpt>
      <trkpt lat="44.80481" lon="3.45317">
        <ele>1232</ele>
        <time>2009-07-06T06:57:26Z</time>
      </trkpt>
      <trkpt lat="44.80451" lon="3.45334">
        <ele>1235</ele>
        <time>2009-07-06T06:57:41Z</time>
      </trkpt>
      <trkpt lat="44.80425" lon="3.45362">
        <ele>1236</ele>
        <time>2009-07-06T06:57:55Z</time>
      </trkpt>
      <trkpt lat="44.80392" lon="3.454">
        <ele>1238</ele>
        <time>2009-07-06T06:58:14Z</time>
      </trkpt>
      <trkpt lat="44.80379" lon="3.45425">
        <ele>1241</ele>
        <time>2009-07-06T06:58:24Z</time>
      </trkpt>
      <trkpt lat="44.80361" lon="3.45476">
        <ele>1242</ele>
        <time>2009-07-06T06:58:40Z</time>
      </trkpt>
      <trkpt lat="44.80335" lon="3.45521">
        <ele>1244</ele>
        <time>2009-07-06T06:58:58Z</time>
      </trkpt>
      <trkpt lat="44.80309" lon="3.45547">
        <ele>1247</ele>
        <time>2009-07-06T06:59:11Z</time>
      </trkpt>
      <trkpt lat="44.80279" lon="3.45573">
        <ele>1249</ele>
        <time>2009-07-06T06:59:26Z</time>
      </trkpt>
      <trkpt lat="44.80244" lon="3.45606">
        <ele>1252</ele>
        <time>2009-07-06T06:59:44Z</time>
      </trkpt>
      <trkpt lat="44.8022" lon="3.4562">
        <ele>1256</ele>
        <time>2009-07-06T06:59:56Z</time>
      </trkpt>
      <trkpt lat="44.80186" lon="3.45622">
        <ele>1258</ele>
        <time>2009-07-06T07:00:12Z</time>
      </trkpt>
      <trkpt lat="44.8015" lon="3.45639">
        <ele>1260</ele>
        <time>2009-07-06T07:00:29Z</time>
      </trkpt>
      <trkpt lat="44.80116" lon="3.45679">
        <ele>1263</ele>
        <time>2009-07-06T07:00:48Z</time>
      </trkpt>
      <trkpt lat="44.80098" lon="3.45707">
        <ele>1266</ele>
        <time>2009-07-06T07:01:00Z</time>
      </trkpt>
      <trkpt lat="44.80086" lon="3.45723">
        <ele>1269</ele>
        <time>2009-07-06T07:01:09Z</time>
      </trkpt>
      <trkpt lat="44.80071" lon="3.45751">
        <ele>1272</ele>
        <time>2009-07-06T07:01:23Z</time>
      </trkpt>
      <trkpt lat="44.80045" lon="3.45761">
        <ele>1275</ele>
        <time>2009-07-06T07:01:38Z</time>
      </trkpt>
      <trkpt lat="44.80015" lon="3.45769">
        <ele>1277</ele>
        <time>2009-07-06T07:01:53Z</time>
      </trkpt>
      <trkpt lat="44.79984" lon="3.45778">
        <ele>1279</ele>
        <time>2009-07-06T07:02:09Z</time>
      </trkpt>
      <trkpt lat="44.79964" lon="3.45788">
        <ele>1282</ele>
        <time>2009-07-06T07:02:20Z</time>
      </trkpt>
      <trkpt lat="44.79938" lon="3.4581">
        <ele>1285</ele>
        <time>2009-07-06T07:02:35Z</time>
      </trkpt>
      <trkpt lat="44.79908" lon="3.45837">
        <ele>1288</ele>
        <time>2009-07-06T07:02:52Z</time>
      </trkpt>
      <trkpt lat="44.79873" lon="3.45864">
        <ele>1289</ele>
        <time>2009-07-06T07:03:10Z</time>
      </trkpt>
      <trkpt lat="44.79838" lon="3.4589">
        <ele>1292</ele>
        <time>2009-07-06T07:03:26Z</time>
      </trkpt>
      <trkpt lat="44.79836" lon="3.45891">
        <ele>1290</ele>
        <time>2009-07-06T07:03:29Z</time>
      </trkpt>
      <trkpt lat="44.79836" lon="3.45893">
        <ele>1292</ele>
        <time>2009-07-06T07:05:14Z</time>
      </trkpt>
      <trkpt lat="44.79824" lon="3.45882">
        <ele>1292</ele>
        <time>2009-07-06T07:05:29Z</time>
      </trkpt>
      <trkpt lat="44.79823" lon="3.45883">
        <ele>1292</ele>
        <time>2009-07-06T07:06:33Z</time>
      </trkpt>
      <trkpt lat="44.79823" lon="3.45883">
        <ele>1293</ele>
        <time>2009-07-06T07:07:15Z</time>
      </trkpt>
      <trkpt lat="44.79824" lon="3.45883">
        <ele>1293</ele>
        <time>2009-07-06T07:08:03Z</time>
      </trkpt>
      <trkpt lat="44.79824" lon="3.45882">
        <ele>1292</ele>
        <time>2009-07-06T07:08:42Z</time>
      </trkpt>
      <trkpt lat="44.79807" lon="3.45891">
        <ele>1293</ele>
        <time>2009-07-06T07:08:51Z</time>
      </trkpt>
      <trkpt lat="44.79755" lon="3.45943">
        <ele>1289</ele>
        <time>2009-07-06T07:09:07Z</time>
      </trkpt>
      <trkpt lat="44.79722" lon="3.45983">
        <ele>1286</ele>
        <time>2009-07-06T07:09:15Z</time>
      </trkpt>
      <trkpt lat="44.79702" lon="3.46004">
        <ele>1283</ele>
        <time>2009-07-06T07:09:19Z</time>
      </trkpt>
      <trkpt lat="44.79693" lon="3.46016">
        <ele>1282</ele>
        <time>2009-07-06T07:09:21Z</time>
      </trkpt>
      <trkpt lat="44.79663" lon="3.46048">
        <ele>1278</ele>
        <time>2009-07-06T07:09:26Z</time>
      </trkpt>
      <trkpt lat="44.79643" lon="3.46065">
        <ele>1276</ele>
        <time>2009-07-06T07:09:29Z</time>
      </trkpt>
      <trkpt lat="44.79618" lon="3.46106">
        <ele>1272</ele>
        <time>2009-07-06T07:09:34Z</time>
      </trkpt>
      <trkpt lat="44.79606" lon="3.46123">
        <ele>1270</ele>
        <time>2009-07-06T07:09:36Z</time>
      </trkpt>
      <trkpt lat="44.79599" lon="3.4613">
        <ele>1269</ele>
        <time>2009-07-06T07:09:37Z</time>
      </trkpt>
      <trkpt lat="44.79543" lon="3.46175">
        <ele>1269</ele>
        <time>2009-07-06T07:09:45Z</time>
      </trkpt>
      <trkpt lat="44.79449" lon="3.46243">
        <ele>1267</ele>
        <time>2009-07-06T07:10:00Z</time>
      </trkpt>
      <trkpt lat="44.79403" lon="3.46276">
        <ele>1264</ele>
        <time>2009-07-06T07:10:07Z</time>
      </trkpt>
      <trkpt lat="44.79388" lon="3.46286">
        <ele>1262</ele>
        <time>2009-07-06T07:10:09Z</time>
      </trkpt>
      <trkpt lat="44.79361" lon="3.46316">
        <ele>1258</ele>
        <time>2009-07-06T07:10:13Z</time>
      </trkpt>
      <trkpt lat="44.79347" lon="3.46335">
        <ele>1256</ele>
        <time>2009-07-06T07:10:15Z</time>
      </trkpt>
      <trkpt lat="44.7933" lon="3.46351">
        <ele>1255</ele>
        <time>2009-07-06T07:10:17Z</time>
      </trkpt>
      <trkpt lat="44.793" lon="3.46383">
        <ele>1254</ele>
        <time>2009-07-06T07:10:21Z</time>
      </trkpt>
      <trkpt lat="44.79261" lon="3.46409">
        <ele>1256</ele>
        <time>2009-07-06T07:10:27Z</time>
      </trkpt>
      <trkpt lat="44.79248" lon="3.46422">
        <ele>1258</ele>
        <time>2009-07-06T07:10:30Z</time>
      </trkpt>
      <trkpt lat="44.79199" lon="3.46473">
        <ele>1261</ele>
        <time>2009-07-06T07:10:43Z</time>
      </trkpt>
      <trkpt lat="44.79154" lon="3.46534">
        <ele>1259</ele>
        <time>2009-07-06T07:10:56Z</time>
      </trkpt>
      <trkpt lat="44.79144" lon="3.46548">
        <ele>1256</ele>
        <time>2009-07-06T07:10:58Z</time>
      </trkpt>
      <trkpt lat="44.79139" lon="3.46554">
        <ele>1256</ele>
        <time>2009-07-06T07:10:59Z</time>
      </trkpt>
      <trkpt lat="44.79111" lon="3.46586">
        <ele>1252</ele>
        <time>2009-07-06T07:11:04Z</time>
      </trkpt>
      <trkpt lat="44.791" lon="3.46601">
        <ele>1252</ele>
        <time>2009-07-06T07:11:06Z</time>
      </trkpt>
      <trkpt lat="44.79084" lon="3.46624">
        <ele>1251</ele>
        <time>2009-07-06T07:11:10Z</time>
      </trkpt>
      <trkpt lat="44.79081" lon="3.46624">
        <ele>1252</ele>
        <time>2009-07-06T07:11:24Z</time>
      </trkpt>
      <trkpt lat="44.79083" lon="3.46622">
        <ele>1252</ele>
        <time>2009-07-06T07:12:51Z</time>
      </trkpt>
      <trkpt lat="44.79081" lon="3.46622">
        <ele>1250</ele>
        <time>2009-07-06T07:13:24Z</time>
      </trkpt>
      <trkpt lat="44.79076" lon="3.46625">
        <ele>1251</ele>
        <time>2009-07-06T07:13:35Z</time>
      </trkpt>
      <trkpt lat="44.79076" lon="3.46625">
        <ele>1251</ele>
        <time>2009-07-06T07:13:38Z</time>
      </trkpt>
      <trkpt lat="44.79081" lon="3.46569">
        <ele>1251</ele>
        <time>2009-07-06T07:13:51Z</time>
      </trkpt>
      <trkpt lat="44.79087" lon="3.46491">
        <ele>1250</ele>
        <time>2009-07-06T07:14:04Z</time>
      </trkpt>
      <trkpt lat="44.79083" lon="3.46389">
        <ele>1250</ele>
        <time>2009-07-06T07:14:20Z</time>
      </trkpt>
      <trkpt lat="44.79093" lon="3.46351">
        <ele>1252</ele>
        <time>2009-07-06T07:14:31Z</time>
      </trkpt>
      <trkpt lat="44.79093" lon="3.46352">
        <ele>1251</ele>
        <time>2009-07-06T07:14:44Z</time>
      </trkpt>
      <trkpt lat="44.79099" lon="3.46348">
        <ele>1251</ele>
        <time>2009-07-06T07:14:48Z</time>
      </trkpt>
      <trkpt lat="44.79142" lon="3.46329">
        <ele>1252</ele>
        <time>2009-07-06T07:15:01Z</time>
      </trkpt>
      <trkpt lat="44.79169" lon="3.4632">
        <ele>1251</ele>
        <time>2009-07-06T07:15:10Z</time>
      </trkpt>
      <trkpt lat="44.79163" lon="3.46318">
        <ele>1252</ele>
        <time>2009-07-06T07:15:15Z</time>
      </trkpt>
      <trkpt lat="44.79119" lon="3.46337">
        <ele>1251</ele>
        <time>2009-07-06T07:15:25Z</time>
      </trkpt>
      <trkpt lat="44.79106" lon="3.46346">
        <ele>1251</ele>
        <time>2009-07-06T07:15:28Z</time>
      </trkpt>
      <trkpt lat="44.79098" lon="3.46352">
        <ele>1252</ele>
        <time>2009-07-06T07:15:30Z</time>
      </trkpt>
      <trkpt lat="44.79096" lon="3.46336">
        <ele>1249</ele>
        <time>2009-07-06T07:15:35Z</time>
      </trkpt>
      <trkpt lat="44.79118" lon="3.4627">
        <ele>1247</ele>
        <time>2009-07-06T07:15:45Z</time>
      </trkpt>
      <trkpt lat="44.79133" lon="3.46246">
        <ele>1245</ele>
        <time>2009-07-06T07:15:49Z</time>
      </trkpt>
      <trkpt lat="44.79136" lon="3.46241">
        <ele>1245</ele>
        <time>2009-07-06T07:15:50Z</time>
      </trkpt>
      <trkpt lat="44.79124" lon="3.46208">
        <ele>1244</ele>
        <time>2009-07-06T07:15:56Z</time>
      </trkpt>
      <trkpt lat="44.79105" lon="3.4618">
        <ele>1242</ele>
        <time>2009-07-06T07:16:00Z</time>
      </trkpt>
      <trkpt lat="44.79097" lon="3.46139">
        <ele>1239</ele>
        <time>2009-07-06T07:16:04Z</time>
      </trkpt>
      <trkpt lat="44.79074" lon="3.46048">
        <ele>1233</ele>
        <time>2009-07-06T07:16:12Z</time>
      </trkpt>
      <trkpt lat="44.79067" lon="3.46021">
        <ele>1229</ele>
        <time>2009-07-06T07:16:14Z</time>
      </trkpt>
      <trkpt lat="44.79062" lon="3.45977">
        <ele>1226</ele>
        <time>2009-07-06T07:16:17Z</time>
      </trkpt>
      <trkpt lat="44.79044" lon="3.45901">
        <ele>1222</ele>
        <time>2009-07-06T07:16:22Z</time>
      </trkpt>
      <trkpt lat="44.79036" lon="3.45872">
        <ele>1223</ele>
        <time>2009-07-06T07:16:24Z</time>
      </trkpt>
      <trkpt lat="44.79015" lon="3.45826">
        <ele>1227</ele>
        <time>2009-07-06T07:16:29Z</time>
      </trkpt>
      <trkpt lat="44.79008" lon="3.45814">
        <ele>1229</ele>
        <time>2009-07-06T07:16:31Z</time>
      </trkpt>
      <trkpt lat="44.79003" lon="3.45804">
        <ele>1230</ele>
        <time>2009-07-06T07:16:33Z</time>
      </trkpt>
      <trkpt lat="44.78997" lon="3.45791">
        <ele>1232</ele>
        <time>2009-07-06T07:16:36Z</time>
      </trkpt>
      <trkpt lat="44.78992" lon="3.45783">
        <ele>1234</ele>
        <time>2009-07-06T07:16:38Z</time>
      </trkpt>
      <trkpt lat="44.78965" lon="3.4573">
        <ele>1235</ele>
        <time>2009-07-06T07:16:52Z</time>
      </trkpt>
      <trkpt lat="44.78928" lon="3.45681">
        <ele>1236</ele>
        <time>2009-07-06T07:17:07Z</time>
      </trkpt>
      <trkpt lat="44.78888" lon="3.45657">
        <ele>1235</ele>
        <time>2009-07-06T07:17:17Z</time>
      </trkpt>
      <trkpt lat="44.78868" lon="3.45644">
        <ele>1232</ele>
        <time>2009-07-06T07:17:21Z</time>
      </trkpt>
      <trkpt lat="44.78832" lon="3.45607">
        <ele>1229</ele>
        <time>2009-07-06T07:17:29Z</time>
      </trkpt>
      <trkpt lat="44.78826" lon="3.45603">
        <ele>1229</ele>
        <time>2009-07-06T07:17:30Z</time>
      </trkpt>
      <trkpt lat="44.7882" lon="3.45598">
        <ele>1228</ele>
        <time>2009-07-06T07:17:31Z</time>
      </trkpt>
      <trkpt lat="44.78786" lon="3.45572">
        <ele>1224</ele>
        <time>2009-07-06T07:17:36Z</time>
      </trkpt>
      <trkpt lat="44.78732" lon="3.45513">
        <ele>1223</ele>
        <time>2009-07-06T07:17:45Z</time>
      </trkpt>
      <trkpt lat="44.78689" lon="3.45469">
        <ele>1225</ele>
        <time>2009-07-06T07:17:55Z</time>
      </trkpt>
      <trkpt lat="44.78638" lon="3.45418">
        <ele>1223</ele>
        <time>2009-07-06T07:18:07Z</time>
      </trkpt>
      <trkpt lat="44.78628" lon="3.45408">
        <ele>1222</ele>
        <time>2009-07-06T07:18:09Z</time>
      </trkpt>
      <trkpt lat="44.78605" lon="3.45402">
        <ele>1216</ele>
        <time>2009-07-06T07:18:13Z</time>
      </trkpt>
      <trkpt lat="44.78588" lon="3.45399">
        <ele>1215</ele>
        <time>2009-07-06T07:18:15Z</time>
      </trkpt>
      <trkpt lat="44.78558" lon="3.454">
        <ele>1217</ele>
        <time>2009-07-06T07:18:19Z</time>
      </trkpt>
      <trkpt lat="44.78536" lon="3.45397">
        <ele>1218</ele>
        <time>2009-07-06T07:18:23Z</time>
      </trkpt>
      <trkpt lat="44.78529" lon="3.45389">
        <ele>1220</ele>
        <time>2009-07-06T07:18:25Z</time>
      </trkpt>
      <trkpt lat="44.78509" lon="3.45332">
        <ele>1223</ele>
        <time>2009-07-06T07:18:38Z</time>
      </trkpt>
      <trkpt lat="44.78491" lon="3.45257">
        <ele>1224</ele>
        <time>2009-07-06T07:18:57Z</time>
      </trkpt>
      <trkpt lat="44.78477" lon="3.45198">
        <ele>1225</ele>
        <time>2009-07-06T07:19:11Z</time>
      </trkpt>
      <trkpt lat="44.78465" lon="3.4514">
        <ele>1225</ele>
        <time>2009-07-06T07:19:24Z</time>
      </trkpt>
      <trkpt lat="44.78449" lon="3.4506">
        <ele>1224</ele>
        <time>2009-07-06T07:19:40Z</time>
      </trkpt>
      <trkpt lat="44.78431" lon="3.44998">
        <ele>1226</ele>
        <time>2009-07-06T07:19:54Z</time>
      </trkpt>
      <trkpt lat="44.78385" lon="3.44943">
        <ele>1228</ele>
        <time>2009-07-06T07:20:11Z</time>
      </trkpt>
      <trkpt lat="44.78345" lon="3.449">
        <ele>1229</ele>
        <time>2009-07-06T07:20:27Z</time>
      </trkpt>
      <trkpt lat="44.7831" lon="3.44876">
        <ele>1230</ele>
        <time>2009-07-06T07:20:42Z</time>
      </trkpt>
      <trkpt lat="44.78269" lon="3.44857">
        <ele>1230</ele>
        <time>2009-07-06T07:20:57Z</time>
      </trkpt>
      <trkpt lat="44.78223" lon="3.44837">
        <ele>1230</ele>
        <time>2009-07-06T07:21:14Z</time>
      </trkpt>
      <trkpt lat="44.78182" lon="3.44807">
        <ele>1231</ele>
        <time>2009-07-06T07:21:31Z</time>
      </trkpt>
      <trkpt lat="44.78163" lon="3.44781">
        <ele>1234</ele>
        <time>2009-07-06T07:21:41Z</time>
      </trkpt>
      <trkpt lat="44.78132" lon="3.4473">
        <ele>1237</ele>
        <time>2009-07-06T07:21:56Z</time>
      </trkpt>
      <trkpt lat="44.7809" lon="3.44666">
        <ele>1239</ele>
        <time>2009-07-06T07:22:16Z</time>
      </trkpt>
      <trkpt lat="44.7807" lon="3.4464">
        <ele>1242</ele>
        <time>2009-07-06T07:22:28Z</time>
      </trkpt>
      <trkpt lat="44.78047" lon="3.44607">
        <ele>1245</ele>
        <time>2009-07-06T07:22:42Z</time>
      </trkpt>
      <trkpt lat="44.78028" lon="3.44573">
        <ele>1246</ele>
        <time>2009-07-06T07:22:56Z</time>
      </trkpt>
      <trkpt lat="44.78013" lon="3.44546">
        <ele>1247</ele>
        <time>2009-07-06T07:23:08Z</time>
      </trkpt>
      <trkpt lat="44.78013" lon="3.44545">
        <ele>1247</ele>
        <time>2009-07-06T07:23:26Z</time>
      </trkpt>
      <trkpt lat="44.78032" lon="3.44528">
        <ele>1247</ele>
        <time>2009-07-06T07:23:38Z</time>
      </trkpt>
      <trkpt lat="44.7806" lon="3.44488">
        <ele>1249</ele>
        <time>2009-07-06T07:23:54Z</time>
      </trkpt>
      <trkpt lat="44.78068" lon="3.44436">
        <ele>1249</ele>
        <time>2009-07-06T07:24:06Z</time>
      </trkpt>
      <trkpt lat="44.78073" lon="3.44413">
        <ele>1249</ele>
        <time>2009-07-06T07:24:11Z</time>
      </trkpt>
      <trkpt lat="44.78073" lon="3.4439">
        <ele>1248</ele>
        <time>2009-07-06T07:24:15Z</time>
      </trkpt>
      <trkpt lat="44.78086" lon="3.44322">
        <ele>1246</ele>
        <time>2009-07-06T07:24:29Z</time>
      </trkpt>
      <trkpt lat="44.78105" lon="3.4427">
        <ele>1246</ele>
        <time>2009-07-06T07:24:43Z</time>
      </trkpt>
      <trkpt lat="44.78107" lon="3.44266">
        <ele>1245</ele>
        <time>2009-07-06T07:24:44Z</time>
      </trkpt>
      <trkpt lat="44.781" lon="3.44251">
        <ele>1244</ele>
        <time>2009-07-06T07:24:49Z</time>
      </trkpt>
      <trkpt lat="44.78072" lon="3.44203">
        <ele>1241</ele>
        <time>2009-07-06T07:25:02Z</time>
      </trkpt>
      <trkpt lat="44.78042" lon="3.44138">
        <ele>1242</ele>
        <time>2009-07-06T07:25:19Z</time>
      </trkpt>
      <trkpt lat="44.78021" lon="3.44082">
        <ele>1242</ele>
        <time>2009-07-06T07:25:33Z</time>
      </trkpt>
      <trkpt lat="44.78006" lon="3.44003">
        <ele>1243</ele>
        <time>2009-07-06T07:25:50Z</time>
      </trkpt>
      <trkpt lat="44.78028" lon="3.43939">
        <ele>1243</ele>
        <time>2009-07-06T07:26:04Z</time>
      </trkpt>
      <trkpt lat="44.78048" lon="3.43902">
        <ele>1243</ele>
        <time>2009-07-06T07:26:12Z</time>
      </trkpt>
      <trkpt lat="44.78058" lon="3.43876">
        <ele>1240</ele>
        <time>2009-07-06T07:26:16Z</time>
      </trkpt>
      <trkpt lat="44.78065" lon="3.4386">
        <ele>1238</ele>
        <time>2009-07-06T07:26:18Z</time>
      </trkpt>
      <trkpt lat="44.78063" lon="3.4382">
        <ele>1234</ele>
        <time>2009-07-06T07:26:23Z</time>
      </trkpt>
      <trkpt lat="44.78049" lon="3.43806">
        <ele>1231</ele>
        <time>2009-07-06T07:26:25Z</time>
      </trkpt>
      <trkpt lat="44.78027" lon="3.43759">
        <ele>1226</ele>
        <time>2009-07-06T07:26:31Z</time>
      </trkpt>
      <trkpt lat="44.78026" lon="3.43749">
        <ele>1226</ele>
        <time>2009-07-06T07:26:32Z</time>
      </trkpt>
      <trkpt lat="44.78016" lon="3.43734">
        <ele>1226</ele>
        <time>2009-07-06T07:26:34Z</time>
      </trkpt>
      <trkpt lat="44.7799" lon="3.43698">
        <ele>1222</ele>
        <time>2009-07-06T07:26:39Z</time>
      </trkpt>
      <trkpt lat="44.77989" lon="3.43686">
        <ele>1221</ele>
        <time>2009-07-06T07:26:41Z</time>
      </trkpt>
      <trkpt lat="44.77996" lon="3.43659">
        <ele>1221</ele>
        <time>2009-07-06T07:26:47Z</time>
      </trkpt>
      <trkpt lat="44.77996" lon="3.43662">
        <ele>1221</ele>
        <time>2009-07-06T07:26:54Z</time>
      </trkpt>
      <trkpt lat="44.77996" lon="3.43674">
        <ele>1219</ele>
        <time>2009-07-06T07:26:58Z</time>
      </trkpt>
      <trkpt lat="44.77991" lon="3.4369">
        <ele>1221</ele>
        <time>2009-07-06T07:27:04Z</time>
      </trkpt>
      <trkpt lat="44.77993" lon="3.43704">
        <ele>1222</ele>
        <time>2009-07-06T07:27:09Z</time>
      </trkpt>
      <trkpt lat="44.78004" lon="3.43724">
        <ele>1225</ele>
        <time>2009-07-06T07:27:17Z</time>
      </trkpt>
      <trkpt lat="44.78031" lon="3.43765">
        <ele>1228</ele>
        <time>2009-07-06T07:27:32Z</time>
      </trkpt>
      <trkpt lat="44.78029" lon="3.43783">
        <ele>1230</ele>
        <time>2009-07-06T07:27:37Z</time>
      </trkpt>
      <trkpt lat="44.78039" lon="3.43803">
        <ele>1232</ele>
        <time>2009-07-06T07:27:45Z</time>
      </trkpt>
      <trkpt lat="44.78048" lon="3.4381">
        <ele>1233</ele>
        <time>2009-07-06T07:27:49Z</time>
      </trkpt>
      <trkpt lat="44.78063" lon="3.43826">
        <ele>1236</ele>
        <time>2009-07-06T07:27:58Z</time>
      </trkpt>
      <trkpt lat="44.7807" lon="3.43847">
        <ele>1238</ele>
        <time>2009-07-06T07:28:10Z</time>
      </trkpt>
      <trkpt lat="44.78058" lon="3.43876">
        <ele>1240</ele>
        <time>2009-07-06T07:28:23Z</time>
      </trkpt>
      <trkpt lat="44.78052" lon="3.43894">
        <ele>1242</ele>
        <time>2009-07-06T07:28:29Z</time>
      </trkpt>
      <trkpt lat="44.78049" lon="3.43899">
        <ele>1243</ele>
        <time>2009-07-06T07:28:40Z</time>
      </trkpt>
      <trkpt lat="44.78049" lon="3.43898">
        <ele>1243</ele>
        <time>2009-07-06T07:28:51Z</time>
      </trkpt>
      <trkpt lat="44.78062" lon="3.43862">
        <ele>1239</ele>
        <time>2009-07-06T07:29:01Z</time>
      </trkpt>
      <trkpt lat="44.78067" lon="3.43852">
        <ele>1238</ele>
        <time>2009-07-06T07:29:03Z</time>
      </trkpt>
      <trkpt lat="44.78072" lon="3.43837">
        <ele>1238</ele>
        <time>2009-07-06T07:29:11Z</time>
      </trkpt>
      <trkpt lat="44.78072" lon="3.43836">
        <ele>1238</ele>
        <time>2009-07-06T07:29:33Z</time>
      </trkpt>
      <trkpt lat="44.78063" lon="3.43823">
        <ele>1234</ele>
        <time>2009-07-06T07:29:38Z</time>
      </trkpt>
      <trkpt lat="44.78058" lon="3.43818">
        <ele>1233</ele>
        <time>2009-07-06T07:29:39Z</time>
      </trkpt>
      <trkpt lat="44.78038" lon="3.43799">
        <ele>1231</ele>
        <time>2009-07-06T07:29:43Z</time>
      </trkpt>
      <trkpt lat="44.78029" lon="3.4378">
        <ele>1227</ele>
        <time>2009-07-06T07:29:46Z</time>
      </trkpt>
      <trkpt lat="44.78017" lon="3.43737">
        <ele>1226</ele>
        <time>2009-07-06T07:29:51Z</time>
      </trkpt>
      <trkpt lat="44.7799" lon="3.43686">
        <ele>1223</ele>
        <time>2009-07-06T07:29:58Z</time>
      </trkpt>
      <trkpt lat="44.77994" lon="3.43671">
        <ele>1222</ele>
        <time>2009-07-06T07:30:00Z</time>
      </trkpt>
      <trkpt lat="44.77996" lon="3.43656">
        <ele>1222</ele>
        <time>2009-07-06T07:30:02Z</time>
      </trkpt>
      <trkpt lat="44.77987" lon="3.43591">
        <ele>1221</ele>
        <time>2009-07-06T07:30:12Z</time>
      </trkpt>
      <trkpt lat="44.7799" lon="3.43535">
        <ele>1220</ele>
        <time>2009-07-06T07:30:21Z</time>
      </trkpt>
      <trkpt lat="44.78" lon="3.43513">
        <ele>1220</ele>
        <time>2009-07-06T07:30:25Z</time>
      </trkpt>
      <trkpt lat="44.78014" lon="3.43489">
        <ele>1221</ele>
        <time>2009-07-06T07:30:31Z</time>
      </trkpt>
      <trkpt lat="44.78046" lon="3.43453">
        <ele>1221</ele>
        <time>2009-07-06T07:30:40Z</time>
      </trkpt>
      <trkpt lat="44.78056" lon="3.4343">
        <ele>1220</ele>
        <time>2009-07-06T07:30:44Z</time>
      </trkpt>
      <trkpt lat="44.78078" lon="3.4339">
        <ele>1221</ele>
        <time>2009-07-06T07:30:52Z</time>
      </trkpt>
      <trkpt lat="44.78114" lon="3.43334">
        <ele>1220</ele>
        <time>2009-07-06T07:31:04Z</time>
      </trkpt>
      <trkpt lat="44.78132" lon="3.43315">
        <ele>1219</ele>
        <time>2009-07-06T07:31:08Z</time>
      </trkpt>
      <trkpt lat="44.78146" lon="3.43305">
        <ele>1220</ele>
        <time>2009-07-06T07:31:11Z</time>
      </trkpt>
      <trkpt lat="44.78154" lon="3.43298">
        <ele>1220</ele>
        <time>2009-07-06T07:31:13Z</time>
      </trkpt>
      <trkpt lat="44.78166" lon="3.43281">
        <ele>1217</ele>
        <time>2009-07-06T07:31:16Z</time>
      </trkpt>
      <trkpt lat="44.78177" lon="3.43259">
        <ele>1215</ele>
        <time>2009-07-06T07:31:19Z</time>
      </trkpt>
      <trkpt lat="44.78192" lon="3.43225">
        <ele>1212</ele>
        <time>2009-07-06T07:31:23Z</time>
      </trkpt>
      <trkpt lat="44.78216" lon="3.43156">
        <ele>1205</ele>
        <time>2009-07-06T07:31:29Z</time>
      </trkpt>
      <trkpt lat="44.78219" lon="3.43143">
        <ele>1205</ele>
        <time>2009-07-06T07:31:30Z</time>
      </trkpt>
      <trkpt lat="44.78238" lon="3.43096">
        <ele>1203</ele>
        <time>2009-07-06T07:31:34Z</time>
      </trkpt>
      <trkpt lat="44.78249" lon="3.43076">
        <ele>1202</ele>
        <time>2009-07-06T07:31:36Z</time>
      </trkpt>
      <trkpt lat="44.7826" lon="3.43055">
        <ele>1200</ele>
        <time>2009-07-06T07:31:38Z</time>
      </trkpt>
      <trkpt lat="44.78277" lon="3.42998">
        <ele>1199</ele>
        <time>2009-07-06T07:31:43Z</time>
      </trkpt>
      <trkpt lat="44.78311" lon="3.42938">
        <ele>1195</ele>
        <time>2009-07-06T07:31:49Z</time>
      </trkpt>
      <trkpt lat="44.78327" lon="3.4289">
        <ele>1191</ele>
        <time>2009-07-06T07:31:53Z</time>
      </trkpt>
      <trkpt lat="44.78329" lon="3.42877">
        <ele>1191</ele>
        <time>2009-07-06T07:31:54Z</time>
      </trkpt>
      <trkpt lat="44.7833" lon="3.42831">
        <ele>1191</ele>
        <time>2009-07-06T07:31:58Z</time>
      </trkpt>
      <trkpt lat="44.78349" lon="3.42786">
        <ele>1186</ele>
        <time>2009-07-06T07:32:04Z</time>
      </trkpt>
      <trkpt lat="44.78356" lon="3.42779">
        <ele>1186</ele>
        <time>2009-07-06T07:32:05Z</time>
      </trkpt>
      <trkpt lat="44.78371" lon="3.42769">
        <ele>1183</ele>
        <time>2009-07-06T07:32:07Z</time>
      </trkpt>
      <trkpt lat="44.78387" lon="3.42762">
        <ele>1182</ele>
        <time>2009-07-06T07:32:09Z</time>
      </trkpt>
      <trkpt lat="44.78422" lon="3.42749">
        <ele>1181</ele>
        <time>2009-07-06T07:32:16Z</time>
      </trkpt>
      <trkpt lat="44.78422" lon="3.4275">
        <ele>1182</ele>
        <time>2009-07-06T07:32:36Z</time>
      </trkpt>
      <trkpt lat="44.78426" lon="3.4275">
        <ele>1182</ele>
        <time>2009-07-06T07:32:45Z</time>
      </trkpt>
      <trkpt lat="44.78428" lon="3.4275">
        <ele>1181</ele>
        <time>2009-07-06T07:33:58Z</time>
      </trkpt>
      <trkpt lat="44.78428" lon="3.42749">
        <ele>1182</ele>
        <time>2009-07-06T07:34:28Z</time>
      </trkpt>
      <trkpt lat="44.78428" lon="3.42751">
        <ele>1182</ele>
        <time>2009-07-06T07:35:53Z</time>
      </trkpt>
      <trkpt lat="44.78427" lon="3.42751">
        <ele>1182</ele>
        <time>2009-07-06T07:36:51Z</time>
      </trkpt>
      <trkpt lat="44.78438" lon="3.42756">
        <ele>1181</ele>
        <time>2009-07-06T07:37:17Z</time>
      </trkpt>
      <trkpt lat="44.78487" lon="3.42781">
        <ele>1180</ele>
        <time>2009-07-06T07:37:31Z</time>
      </trkpt>
      <trkpt lat="44.78512" lon="3.4279">
        <ele>1176</ele>
        <time>2009-07-06T07:37:39Z</time>
      </trkpt>
      <trkpt lat="44.78515" lon="3.4279">
        <ele>1176</ele>
        <time>2009-07-06T07:37:40Z</time>
      </trkpt>
      <trkpt lat="44.78532" lon="3.42791">
        <ele>1174</ele>
        <time>2009-07-06T07:37:46Z</time>
      </trkpt>
      <trkpt lat="44.78575" lon="3.42788">
        <ele>1173</ele>
        <time>2009-07-06T07:37:58Z</time>
      </trkpt>
      <trkpt lat="44.78582" lon="3.42788">
        <ele>1174</ele>
        <time>2009-07-06T07:38:01Z</time>
      </trkpt>
      <trkpt lat="44.7858" lon="3.42783">
        <ele>1173</ele>
        <time>2009-07-06T07:38:05Z</time>
      </trkpt>
      <trkpt lat="44.78548" lon="3.42783">
        <ele>1174</ele>
        <time>2009-07-06T07:38:17Z</time>
      </trkpt>
      <trkpt lat="44.78541" lon="3.42785">
        <ele>1174</ele>
        <time>2009-07-06T07:38:30Z</time>
      </trkpt>
      <trkpt lat="44.78539" lon="3.42786">
        <ele>1175</ele>
        <time>2009-07-06T07:38:31Z</time>
      </trkpt>
      <trkpt lat="44.78535" lon="3.42773">
        <ele>1173</ele>
        <time>2009-07-06T07:38:36Z</time>
      </trkpt>
      <trkpt lat="44.78533" lon="3.42768">
        <ele>1173</ele>
        <time>2009-07-06T07:38:37Z</time>
      </trkpt>
      <trkpt lat="44.78507" lon="3.42742">
        <ele>1172</ele>
        <time>2009-07-06T07:38:44Z</time>
      </trkpt>
      <trkpt lat="44.78499" lon="3.42739">
        <ele>1173</ele>
        <time>2009-07-06T07:38:46Z</time>
      </trkpt>
      <trkpt lat="44.78456" lon="3.42702">
        <ele>1174</ele>
        <time>2009-07-06T07:39:01Z</time>
      </trkpt>
      <trkpt lat="44.78451" lon="3.42687">
        <ele>1170</ele>
        <time>2009-07-06T07:39:05Z</time>
      </trkpt>
      <trkpt lat="44.78448" lon="3.42658">
        <ele>1166</ele>
        <time>2009-07-06T07:39:09Z</time>
      </trkpt>
      <trkpt lat="44.78447" lon="3.42649">
        <ele>1165</ele>
        <time>2009-07-06T07:39:10Z</time>
      </trkpt>
      <trkpt lat="44.78443" lon="3.42627">
        <ele>1161</ele>
        <time>2009-07-06T07:39:12Z</time>
      </trkpt>
      <trkpt lat="44.78426" lon="3.42597">
        <ele>1158</ele>
        <time>2009-07-06T07:39:15Z</time>
      </trkpt>
      <trkpt lat="44.78413" lon="3.42579">
        <ele>1155</ele>
        <time>2009-07-06T07:39:17Z</time>
      </trkpt>
      <trkpt lat="44.78409" lon="3.42572">
        <ele>1155</ele>
        <time>2009-07-06T07:39:18Z</time>
      </trkpt>
      <trkpt lat="44.784" lon="3.42543">
        <ele>1148</ele>
        <time>2009-07-06T07:39:21Z</time>
      </trkpt>
      <trkpt lat="44.78397" lon="3.42511">
        <ele>1146</ele>
        <time>2009-07-06T07:39:24Z</time>
      </trkpt>
      <trkpt lat="44.78391" lon="3.42497">
        <ele>1146</ele>
        <time>2009-07-06T07:39:28Z</time>
      </trkpt>
      <trkpt lat="44.78382" lon="3.42493">
        <ele>1144</ele>
        <time>2009-07-06T07:39:36Z</time>
      </trkpt>
      <trkpt lat="44.78382" lon="3.42493">
        <ele>1144</ele>
        <time>2009-07-06T07:39:44Z</time>
      </trkpt>
      <trkpt lat="44.78387" lon="3.42497">
        <ele>1145</ele>
        <time>2009-07-06T07:39:49Z</time>
      </trkpt>
      <trkpt lat="44.78396" lon="3.42506">
        <ele>1146</ele>
        <time>2009-07-06T07:39:58Z</time>
      </trkpt>
      <trkpt lat="44.78403" lon="3.42502">
        <ele>1144</ele>
        <time>2009-07-06T07:40:02Z</time>
      </trkpt>
      <trkpt lat="44.78413" lon="3.42496">
        <ele>1142</ele>
        <time>2009-07-06T07:40:05Z</time>
      </trkpt>
      <trkpt lat="44.78416" lon="3.42488">
        <ele>1141</ele>
        <time>2009-07-06T07:40:07Z</time>
      </trkpt>
      <trkpt lat="44.78417" lon="3.42469">
        <ele>1139</ele>
        <time>2009-07-06T07:40:11Z</time>
      </trkpt>
      <trkpt lat="44.78417" lon="3.42441">
        <ele>1136</ele>
        <time>2009-07-06T07:40:16Z</time>
      </trkpt>
      <trkpt lat="44.78412" lon="3.42414">
        <ele>1133</ele>
        <time>2009-07-06T07:40:22Z</time>
      </trkpt>
      <trkpt lat="44.78403" lon="3.42391">
        <ele>1132</ele>
        <time>2009-07-06T07:40:34Z</time>
      </trkpt>
      <trkpt lat="44.78401" lon="3.42384">
        <ele>1131</ele>
        <time>2009-07-06T07:40:46Z</time>
      </trkpt>
      <trkpt lat="44.78397" lon="3.42373">
        <ele>1131</ele>
        <time>2009-07-06T07:41:00Z</time>
      </trkpt>
      <trkpt lat="44.78395" lon="3.42366">
        <ele>1131</ele>
        <time>2009-07-06T07:41:08Z</time>
      </trkpt>
      <trkpt lat="44.78393" lon="3.42336">
        <ele>1131</ele>
        <time>2009-07-06T07:41:20Z</time>
      </trkpt>
      <trkpt lat="44.78395" lon="3.42332">
        <ele>1130</ele>
        <time>2009-07-06T07:41:22Z</time>
      </trkpt>
      <trkpt lat="44.78399" lon="3.42325">
        <ele>1131</ele>
        <time>2009-07-06T07:41:34Z</time>
      </trkpt>
      <trkpt lat="44.78401" lon="3.42315">
        <ele>1131</ele>
        <time>2009-07-06T07:41:47Z</time>
      </trkpt>
      <trkpt lat="44.784" lon="3.42314">
        <ele>1130</ele>
        <time>2009-07-06T07:42:05Z</time>
      </trkpt>
      <trkpt lat="44.78397" lon="3.42311">
        <ele>1131</ele>
        <time>2009-07-06T07:43:53Z</time>
      </trkpt>
      <trkpt lat="44.78398" lon="3.4231">
        <ele>1130</ele>
        <time>2009-07-06T07:44:23Z</time>
      </trkpt>
      <trkpt lat="44.78397" lon="3.42311">
        <ele>1130</ele>
        <time>2009-07-06T07:45:19Z</time>
      </trkpt>
      <trkpt lat="44.78399" lon="3.42312">
        <ele>1130</ele>
        <time>2009-07-06T07:46:58Z</time>
      </trkpt>
      <trkpt lat="44.78399" lon="3.42309">
        <ele>1131</ele>
        <time>2009-07-06T07:47:28Z</time>
      </trkpt>
      <trkpt lat="44.78399" lon="3.42309">
        <ele>1131</ele>
        <time>2009-07-06T07:48:01Z</time>
      </trkpt>
      <trkpt lat="44.78402" lon="3.423">
        <ele>1131</ele>
        <time>2009-07-06T07:48:06Z</time>
      </trkpt>
      <trkpt lat="44.78404" lon="3.42296">
        <ele>1131</ele>
        <time>2009-07-06T07:48:08Z</time>
      </trkpt>
      <trkpt lat="44.78412" lon="3.42293">
        <ele>1129</ele>
        <time>2009-07-06T07:48:11Z</time>
      </trkpt>
      <trkpt lat="44.78417" lon="3.42283">
        <ele>1128</ele>
        <time>2009-07-06T07:48:14Z</time>
      </trkpt>
      <trkpt lat="44.78421" lon="3.42268">
        <ele>1127</ele>
        <time>2009-07-06T07:48:17Z</time>
      </trkpt>
      <trkpt lat="44.78424" lon="3.42258">
        <ele>1126</ele>
        <time>2009-07-06T07:48:20Z</time>
      </trkpt>
      <trkpt lat="44.78432" lon="3.42247">
        <ele>1123</ele>
        <time>2009-07-06T07:48:25Z</time>
      </trkpt>
      <trkpt lat="44.78434" lon="3.42244">
        <ele>1123</ele>
        <time>2009-07-06T07:48:26Z</time>
      </trkpt>
      <trkpt lat="44.78438" lon="3.42237">
        <ele>1121</ele>
        <time>2009-07-06T07:48:28Z</time>
      </trkpt>
      <trkpt lat="44.78445" lon="3.42221">
        <ele>1118</ele>
        <time>2009-07-06T07:48:32Z</time>
      </trkpt>
      <trkpt lat="44.78447" lon="3.422">
        <ele>1115</ele>
        <time>2009-07-06T07:48:36Z</time>
      </trkpt>
      <trkpt lat="44.78444" lon="3.42182">
        <ele>1114</ele>
        <time>2009-07-06T07:48:39Z</time>
      </trkpt>
      <trkpt lat="44.78426" lon="3.42132">
        <ele>1113</ele>
        <time>2009-07-06T07:48:51Z</time>
      </trkpt>
      <trkpt lat="44.78419" lon="3.42118">
        <ele>1111</ele>
        <time>2009-07-06T07:48:56Z</time>
      </trkpt>
      <trkpt lat="44.78418" lon="3.42107">
        <ele>1109</ele>
        <time>2009-07-06T07:48:59Z</time>
      </trkpt>
      <trkpt lat="44.78416" lon="3.42096">
        <ele>1108</ele>
        <time>2009-07-06T07:49:02Z</time>
      </trkpt>
      <trkpt lat="44.784" lon="3.42074">
        <ele>1105</ele>
        <time>2009-07-06T07:49:13Z</time>
      </trkpt>
      <trkpt lat="44.7839" lon="3.42066">
        <ele>1105</ele>
        <time>2009-07-06T07:49:19Z</time>
      </trkpt>
      <trkpt lat="44.78384" lon="3.42059">
        <ele>1104</ele>
        <time>2009-07-06T07:49:22Z</time>
      </trkpt>
      <trkpt lat="44.78375" lon="3.42044">
        <ele>1098</ele>
        <time>2009-07-06T07:49:26Z</time>
      </trkpt>
      <trkpt lat="44.78373" lon="3.4204">
        <ele>1098</ele>
        <time>2009-07-06T07:49:27Z</time>
      </trkpt>
      <trkpt lat="44.78372" lon="3.42037">
        <ele>1097</ele>
        <time>2009-07-06T07:49:28Z</time>
      </trkpt>
      <trkpt lat="44.78366" lon="3.42028">
        <ele>1096</ele>
        <time>2009-07-06T07:49:40Z</time>
      </trkpt>
      <trkpt lat="44.78362" lon="3.42026">
        <ele>1096</ele>
        <time>2009-07-06T07:49:56Z</time>
      </trkpt>
      <trkpt lat="44.7836" lon="3.42029">
        <ele>1095</ele>
        <time>2009-07-06T07:50:15Z</time>
      </trkpt>
      <trkpt lat="44.7836" lon="3.42026">
        <ele>1096</ele>
        <time>2009-07-06T07:50:28Z</time>
      </trkpt>
      <trkpt lat="44.78357" lon="3.42022">
        <ele>1096</ele>
        <time>2009-07-06T07:50:48Z</time>
      </trkpt>
      <trkpt lat="44.78349" lon="3.42008">
        <ele>1093</ele>
        <time>2009-07-06T07:51:26Z</time>
      </trkpt>
      <trkpt lat="44.78341" lon="3.41998">
        <ele>1089</ele>
        <time>2009-07-06T07:51:29Z</time>
      </trkpt>
      <trkpt lat="44.78339" lon="3.41994">
        <ele>1088</ele>
        <time>2009-07-06T07:51:30Z</time>
      </trkpt>
      <trkpt lat="44.78334" lon="3.41984">
        <ele>1087</ele>
        <time>2009-07-06T07:51:32Z</time>
      </trkpt>
      <trkpt lat="44.78329" lon="3.41972">
        <ele>1084</ele>
        <time>2009-07-06T07:51:34Z</time>
      </trkpt>
      <trkpt lat="44.78317" lon="3.41955">
        <ele>1079</ele>
        <time>2009-07-06T07:51:37Z</time>
      </trkpt>
      <trkpt lat="44.78312" lon="3.41949">
        <ele>1075</ele>
        <time>2009-07-06T07:51:38Z</time>
      </trkpt>
      <trkpt lat="44.78307" lon="3.41943">
        <ele>1075</ele>
        <time>2009-07-06T07:51:39Z</time>
      </trkpt>
      <trkpt lat="44.78301" lon="3.41937">
        <ele>1075</ele>
        <time>2009-07-06T07:51:40Z</time>
      </trkpt>
      <trkpt lat="44.78277" lon="3.41916">
        <ele>1072</ele>
        <time>2009-07-06T07:51:45Z</time>
      </trkpt>
      <trkpt lat="44.78271" lon="3.41902">
        <ele>1071</ele>
        <time>2009-07-06T07:51:51Z</time>
      </trkpt>
      <trkpt lat="44.78269" lon="3.41891">
        <ele>1069</ele>
        <time>2009-07-06T07:51:54Z</time>
      </trkpt>
      <trkpt lat="44.78261" lon="3.41871">
        <ele>1067</ele>
        <time>2009-07-06T07:52:02Z</time>
      </trkpt>
      <trkpt lat="44.78258" lon="3.41859">
        <ele>1065</ele>
        <time>2009-07-06T07:52:06Z</time>
      </trkpt>
      <trkpt lat="44.78256" lon="3.41856">
        <ele>1065</ele>
        <time>2009-07-06T07:52:08Z</time>
      </trkpt>
      <trkpt lat="44.78248" lon="3.41826">
        <ele>1062</ele>
        <time>2009-07-06T07:52:21Z</time>
      </trkpt>
      <trkpt lat="44.78247" lon="3.41826">
        <ele>1062</ele>
        <time>2009-07-06T07:52:37Z</time>
      </trkpt>
      <trkpt lat="44.78246" lon="3.41818">
        <ele>1062</ele>
        <time>2009-07-06T07:52:45Z</time>
      </trkpt>
      <trkpt lat="44.78245" lon="3.41815">
        <ele>1059</ele>
        <time>2009-07-06T07:53:00Z</time>
      </trkpt>
      <trkpt lat="44.78244" lon="3.41813">
        <ele>1061</ele>
        <time>2009-07-06T07:53:45Z</time>
      </trkpt>
      <trkpt lat="44.78244" lon="3.41812">
        <ele>1060</ele>
        <time>2009-07-06T07:53:52Z</time>
      </trkpt>
      <trkpt lat="44.78244" lon="3.41795">
        <ele>1059</ele>
        <time>2009-07-06T07:54:03Z</time>
      </trkpt>
      <trkpt lat="44.78245" lon="3.4175">
        <ele>1055</ele>
        <time>2009-07-06T07:54:14Z</time>
      </trkpt>
      <trkpt lat="44.78245" lon="3.41743">
        <ele>1055</ele>
        <time>2009-07-06T07:54:15Z</time>
      </trkpt>
      <trkpt lat="44.78248" lon="3.41728">
        <ele>1052</ele>
        <time>2009-07-06T07:54:17Z</time>
      </trkpt>
      <trkpt lat="44.78251" lon="3.41701">
        <ele>1047</ele>
        <time>2009-07-06T07:54:21Z</time>
      </trkpt>
      <trkpt lat="44.78251" lon="3.41694">
        <ele>1047</ele>
        <time>2009-07-06T07:54:22Z</time>
      </trkpt>
      <trkpt lat="44.78253" lon="3.41679">
        <ele>1042</ele>
        <time>2009-07-06T07:54:24Z</time>
      </trkpt>
      <trkpt lat="44.78253" lon="3.4166">
        <ele>1040</ele>
        <time>2009-07-06T07:54:26Z</time>
      </trkpt>
      <trkpt lat="44.78264" lon="3.41624">
        <ele>1040</ele>
        <time>2009-07-06T07:54:33Z</time>
      </trkpt>
      <trkpt lat="44.78263" lon="3.41619">
        <ele>1040</ele>
        <time>2009-07-06T07:54:34Z</time>
      </trkpt>
      <trkpt lat="44.78255" lon="3.41586">
        <ele>1037</ele>
        <time>2009-07-06T07:54:39Z</time>
      </trkpt>
      <trkpt lat="44.78265" lon="3.41551">
        <ele>1033</ele>
        <time>2009-07-06T07:54:45Z</time>
      </trkpt>
      <trkpt lat="44.78269" lon="3.41533">
        <ele>1029</ele>
        <time>2009-07-06T07:54:48Z</time>
      </trkpt>
      <trkpt lat="44.78272" lon="3.41517">
        <ele>1028</ele>
        <time>2009-07-06T07:54:50Z</time>
      </trkpt>
      <trkpt lat="44.7828" lon="3.41491">
        <ele>1025</ele>
        <time>2009-07-06T07:54:54Z</time>
      </trkpt>
      <trkpt lat="44.78283" lon="3.41484">
        <ele>1024</ele>
        <time>2009-07-06T07:54:55Z</time>
      </trkpt>
      <trkpt lat="44.78293" lon="3.41459">
        <ele>1019</ele>
        <time>2009-07-06T07:55:00Z</time>
      </trkpt>
      <trkpt lat="44.78287" lon="3.41464">
        <ele>1018</ele>
        <time>2009-07-06T07:55:10Z</time>
      </trkpt>
      <trkpt lat="44.7829" lon="3.41461">
        <ele>1019</ele>
        <time>2009-07-06T07:55:26Z</time>
      </trkpt>
      <trkpt lat="44.7829" lon="3.41461">
        <ele>1019</ele>
        <time>2009-07-06T07:55:59Z</time>
      </trkpt>
      <trkpt lat="44.78291" lon="3.41461">
        <ele>1020</ele>
        <time>2009-07-06T07:56:59Z</time>
      </trkpt>
      <trkpt lat="44.78287" lon="3.41466">
        <ele>1020</ele>
        <time>2009-07-06T07:58:36Z</time>
      </trkpt>
      <trkpt lat="44.78274" lon="3.41472">
        <ele>1016</ele>
        <time>2009-07-06T07:58:42Z</time>
      </trkpt>
      <trkpt lat="44.7826" lon="3.41484">
        <ele>1013</ele>
        <time>2009-07-06T07:58:46Z</time>
      </trkpt>
      <trkpt lat="44.78242" lon="3.41473">
        <ele>1009</ele>
        <time>2009-07-06T07:58:52Z</time>
      </trkpt>
      <trkpt lat="44.78241" lon="3.41466">
        <ele>1008</ele>
        <time>2009-07-06T07:58:53Z</time>
      </trkpt>
      <trkpt lat="44.78239" lon="3.4143">
        <ele>1003</ele>
        <time>2009-07-06T07:58:57Z</time>
      </trkpt>
      <trkpt lat="44.78237" lon="3.41412">
        <ele>1001</ele>
        <time>2009-07-06T07:58:59Z</time>
      </trkpt>
      <trkpt lat="44.78226" lon="3.41386">
        <ele>996</ele>
        <time>2009-07-06T07:59:03Z</time>
      </trkpt>
      <trkpt lat="44.78209" lon="3.41335">
        <ele>992</ele>
        <time>2009-07-06T07:59:11Z</time>
      </trkpt>
      <trkpt lat="44.78205" lon="3.41324">
        <ele>991</ele>
        <time>2009-07-06T07:59:13Z</time>
      </trkpt>
      <trkpt lat="44.78199" lon="3.4132">
        <ele>992</ele>
        <time>2009-07-06T07:59:18Z</time>
      </trkpt>
      <trkpt lat="44.78178" lon="3.41318">
        <ele>990</ele>
        <time>2009-07-06T07:59:25Z</time>
      </trkpt>
      <trkpt lat="44.78169" lon="3.41298">
        <ele>988</ele>
        <time>2009-07-06T07:59:29Z</time>
      </trkpt>
      <trkpt lat="44.78154" lon="3.4123">
        <ele>984</ele>
        <time>2009-07-06T07:59:38Z</time>
      </trkpt>
      <trkpt lat="44.78142" lon="3.41186">
        <ele>980</ele>
        <time>2009-07-06T07:59:43Z</time>
      </trkpt>
      <trkpt lat="44.78131" lon="3.41146">
        <ele>979</ele>
        <time>2009-07-06T07:59:47Z</time>
      </trkpt>
      <trkpt lat="44.78079" lon="3.41021">
        <ele>976</ele>
        <time>2009-07-06T08:00:00Z</time>
      </trkpt>
      <trkpt lat="44.78015" lon="3.40904">
        <ele>974</ele>
        <time>2009-07-06T08:00:13Z</time>
      </trkpt>
      <trkpt lat="44.78005" lon="3.40885">
        <ele>973</ele>
        <time>2009-07-06T08:00:15Z</time>
      </trkpt>
      <trkpt lat="44.77997" lon="3.40865">
        <ele>973</ele>
        <time>2009-07-06T08:00:17Z</time>
      </trkpt>
      <trkpt lat="44.77991" lon="3.4081">
        <ele>971</ele>
        <time>2009-07-06T08:00:22Z</time>
      </trkpt>
      <trkpt lat="44.77993" lon="3.40776">
        <ele>970</ele>
        <time>2009-07-06T08:00:25Z</time>
      </trkpt>
      <trkpt lat="44.77986" lon="3.40646">
        <ele>967</ele>
        <time>2009-07-06T08:00:37Z</time>
      </trkpt>
      <trkpt lat="44.78016" lon="3.40571">
        <ele>966</ele>
        <time>2009-07-06T08:00:46Z</time>
      </trkpt>
      <trkpt lat="44.78029" lon="3.40563">
        <ele>965</ele>
        <time>2009-07-06T08:00:48Z</time>
      </trkpt>
      <trkpt lat="44.78099" lon="3.40523">
        <ele>965</ele>
        <time>2009-07-06T08:01:01Z</time>
      </trkpt>
      <trkpt lat="44.78118" lon="3.40483">
        <ele>966</ele>
        <time>2009-07-06T08:01:07Z</time>
      </trkpt>
      <trkpt lat="44.78147" lon="3.40293">
        <ele>965</ele>
        <time>2009-07-06T08:01:30Z</time>
      </trkpt>
      <trkpt lat="44.78157" lon="3.40238">
        <ele>968</ele>
        <time>2009-07-06T08:01:39Z</time>
      </trkpt>
      <trkpt lat="44.78171" lon="3.4018">
        <ele>972</ele>
        <time>2009-07-06T08:01:51Z</time>
      </trkpt>
      <trkpt lat="44.78203" lon="3.40127">
        <ele>973</ele>
        <time>2009-07-06T08:02:08Z</time>
      </trkpt>
      <trkpt lat="44.78205" lon="3.40086">
        <ele>976</ele>
        <time>2009-07-06T08:02:19Z</time>
      </trkpt>
      <trkpt lat="44.78206" lon="3.40068">
        <ele>978</ele>
        <time>2009-07-06T08:02:24Z</time>
      </trkpt>
      <trkpt lat="44.78227" lon="3.40038">
        <ele>981</ele>
        <time>2009-07-06T08:02:37Z</time>
      </trkpt>
      <trkpt lat="44.78236" lon="3.40027">
        <ele>984</ele>
        <time>2009-07-06T08:02:43Z</time>
      </trkpt>
      <trkpt lat="44.78262" lon="3.40012">
        <ele>987</ele>
        <time>2009-07-06T08:02:56Z</time>
      </trkpt>
      <trkpt lat="44.78307" lon="3.40014">
        <ele>988</ele>
        <time>2009-07-06T08:03:14Z</time>
      </trkpt>
      <trkpt lat="44.78351" lon="3.4">
        <ele>991</ele>
        <time>2009-07-06T08:03:31Z</time>
      </trkpt>
      <trkpt lat="44.7839" lon="3.39966">
        <ele>993</ele>
        <time>2009-07-06T08:03:48Z</time>
      </trkpt>
      <trkpt lat="44.78395" lon="3.39959">
        <ele>994</ele>
        <time>2009-07-06T08:03:51Z</time>
      </trkpt>
      <trkpt lat="44.78402" lon="3.3995">
        <ele>997</ele>
        <time>2009-07-06T08:03:55Z</time>
      </trkpt>
      <trkpt lat="44.784" lon="3.3993">
        <ele>999</ele>
        <time>2009-07-06T08:04:03Z</time>
      </trkpt>
      <trkpt lat="44.78374" lon="3.3993">
        <ele>1002</ele>
        <time>2009-07-06T08:04:15Z</time>
      </trkpt>
      <trkpt lat="44.78355" lon="3.39924">
        <ele>1006</ele>
        <time>2009-07-06T08:04:25Z</time>
      </trkpt>
      <trkpt lat="44.78328" lon="3.39917">
        <ele>1009</ele>
        <time>2009-07-06T08:04:38Z</time>
      </trkpt>
      <trkpt lat="44.78322" lon="3.39915">
        <ele>1011</ele>
        <time>2009-07-06T08:04:41Z</time>
      </trkpt>
      <trkpt lat="44.78295" lon="3.39903">
        <ele>1012</ele>
        <time>2009-07-06T08:04:54Z</time>
      </trkpt>
      <trkpt lat="44.78279" lon="3.39884">
        <ele>1015</ele>
        <time>2009-07-06T08:05:03Z</time>
      </trkpt>
      <trkpt lat="44.78261" lon="3.39831">
        <ele>1017</ele>
        <time>2009-07-06T08:05:20Z</time>
      </trkpt>
      <trkpt lat="44.7826" lon="3.39824">
        <ele>1018</ele>
        <time>2009-07-06T08:05:22Z</time>
      </trkpt>
      <trkpt lat="44.78257" lon="3.398">
        <ele>1019</ele>
        <time>2009-07-06T08:05:29Z</time>
      </trkpt>
      <trkpt lat="44.78255" lon="3.39758">
        <ele>1023</ele>
        <time>2009-07-06T08:05:42Z</time>
      </trkpt>
      <trkpt lat="44.78261" lon="3.39716">
        <ele>1025</ele>
        <time>2009-07-06T08:05:54Z</time>
      </trkpt>
      <trkpt lat="44.78279" lon="3.39644">
        <ele>1025</ele>
        <time>2009-07-06T08:06:11Z</time>
      </trkpt>
      <trkpt lat="44.783" lon="3.39545">
        <ele>1025</ele>
        <time>2009-07-06T08:06:29Z</time>
      </trkpt>
      <trkpt lat="44.78307" lon="3.39504">
        <ele>1026</ele>
        <time>2009-07-06T08:06:36Z</time>
      </trkpt>
      <trkpt lat="44.78343" lon="3.39457">
        <ele>1026</ele>
        <time>2009-07-06T08:06:49Z</time>
      </trkpt>
      <trkpt lat="44.78346" lon="3.39454">
        <ele>1026</ele>
        <time>2009-07-06T08:06:50Z</time>
      </trkpt>
      <trkpt lat="44.78346" lon="3.39431">
        <ele>1027</ele>
        <time>2009-07-06T08:07:00Z</time>
      </trkpt>
      <trkpt lat="44.78346" lon="3.39433">
        <ele>1027</ele>
        <time>2009-07-06T08:07:18Z</time>
      </trkpt>
      <trkpt lat="44.78345" lon="3.39433">
        <ele>1028</ele>
        <time>2009-07-06T08:08:03Z</time>
      </trkpt>
      <trkpt lat="44.78344" lon="3.39433">
        <ele>1028</ele>
        <time>2009-07-06T08:08:36Z</time>
      </trkpt>
      <trkpt lat="44.78344" lon="3.39433">
        <ele>1028</ele>
        <time>2009-07-06T08:09:04Z</time>
      </trkpt>
      <trkpt lat="44.78345" lon="3.39432">
        <ele>1027</ele>
        <time>2009-07-06T08:09:33Z</time>
      </trkpt>
      <trkpt lat="44.78344" lon="3.39433">
        <ele>1028</ele>
        <time>2009-07-06T08:10:13Z</time>
      </trkpt>
      <trkpt lat="44.78344" lon="3.39434">
        <ele>1028</ele>
        <time>2009-07-06T08:10:34Z</time>
      </trkpt>
      <trkpt lat="44.78346" lon="3.39435">
        <ele>1027</ele>
        <time>2009-07-06T08:17:12Z</time>
      </trkpt>
      <trkpt lat="44.78347" lon="3.39434">
        <ele>1026</ele>
        <time>2009-07-06T08:18:16Z</time>
      </trkpt>
      <trkpt lat="44.7834" lon="3.39435">
        <ele>1026</ele>
        <time>2009-07-06T08:20:11Z</time>
      </trkpt>
      <trkpt lat="44.78338" lon="3.39434">
        <ele>1026</ele>
        <time>2009-07-06T08:20:28Z</time>
      </trkpt>
      <trkpt lat="44.78341" lon="3.39429">
        <ele>1026</ele>
        <time>2009-07-06T08:21:40Z</time>
      </trkpt>
      <trkpt lat="44.78341" lon="3.39429">
        <ele>1025</ele>
        <time>2009-07-06T08:21:59Z</time>
      </trkpt>
      <trkpt lat="44.78341" lon="3.39429">
        <ele>1026</ele>
        <time>2009-07-06T08:22:18Z</time>
      </trkpt>
      <trkpt lat="44.78335" lon="3.39411">
        <ele>1026</ele>
        <time>2009-07-06T08:22:31Z</time>
      </trkpt>
      <trkpt lat="44.78319" lon="3.39364">
        <ele>1025</ele>
        <time>2009-07-06T08:22:43Z</time>
      </trkpt>
      <trkpt lat="44.78311" lon="3.39337">
        <ele>1024</ele>
        <time>2009-07-06T08:22:50Z</time>
      </trkpt>
      <trkpt lat="44.78271" lon="3.39262">
        <ele>1023</ele>
        <time>2009-07-06T08:23:06Z</time>
      </trkpt>
      <trkpt lat="44.78232" lon="3.39213">
        <ele>1024</ele>
        <time>2009-07-06T08:23:18Z</time>
      </trkpt>
      <trkpt lat="44.78168" lon="3.39204">
        <ele>1025</ele>
        <time>2009-07-06T08:23:33Z</time>
      </trkpt>
      <trkpt lat="44.78101" lon="3.39205">
        <ele>1026</ele>
        <time>2009-07-06T08:23:49Z</time>
      </trkpt>
      <trkpt lat="44.78038" lon="3.39214">
        <ele>1025</ele>
        <time>2009-07-06T08:24:03Z</time>
      </trkpt>
      <trkpt lat="44.78006" lon="3.39194">
        <ele>1022</ele>
        <time>2009-07-06T08:24:09Z</time>
      </trkpt>
      <trkpt lat="44.78001" lon="3.39188">
        <ele>1021</ele>
        <time>2009-07-06T08:24:10Z</time>
      </trkpt>
      <trkpt lat="44.77975" lon="3.39155">
        <ele>1020</ele>
        <time>2009-07-06T08:24:15Z</time>
      </trkpt>
      <trkpt lat="44.77967" lon="3.39112">
        <ele>1016</ele>
        <time>2009-07-06T08:24:20Z</time>
      </trkpt>
      <trkpt lat="44.7797" lon="3.39102">
        <ele>1015</ele>
        <time>2009-07-06T08:24:21Z</time>
      </trkpt>
      <trkpt lat="44.77985" lon="3.3906">
        <ele>1011</ele>
        <time>2009-07-06T08:24:25Z</time>
      </trkpt>
      <trkpt lat="44.77989" lon="3.39049">
        <ele>1011</ele>
        <time>2009-07-06T08:24:26Z</time>
      </trkpt>
      <trkpt lat="44.78018" lon="3.39006">
        <ele>1008</ele>
        <time>2009-07-06T08:24:31Z</time>
      </trkpt>
      <trkpt lat="44.78048" lon="3.38978">
        <ele>1003</ele>
        <time>2009-07-06T08:24:35Z</time>
      </trkpt>
      <trkpt lat="44.78055" lon="3.38971">
        <ele>1004</ele>
        <time>2009-07-06T08:24:36Z</time>
      </trkpt>
      <trkpt lat="44.78063" lon="3.38964">
        <ele>1003</ele>
        <time>2009-07-06T08:24:37Z</time>
      </trkpt>
      <trkpt lat="44.78096" lon="3.38943">
        <ele>1001</ele>
        <time>2009-07-06T08:24:41Z</time>
      </trkpt>
      <trkpt lat="44.78107" lon="3.38911">
        <ele>998</ele>
        <time>2009-07-06T08:24:45Z</time>
      </trkpt>
      <trkpt lat="44.78107" lon="3.38897">
        <ele>998</ele>
        <time>2009-07-06T08:24:47Z</time>
      </trkpt>
      <trkpt lat="44.78119" lon="3.38868">
        <ele>995</ele>
        <time>2009-07-06T08:24:52Z</time>
      </trkpt>
      <trkpt lat="44.78125" lon="3.38855">
        <ele>995</ele>
        <time>2009-07-06T08:24:54Z</time>
      </trkpt>
      <trkpt lat="44.78132" lon="3.38833">
        <ele>995</ele>
        <time>2009-07-06T08:24:59Z</time>
      </trkpt>
      <trkpt lat="44.78134" lon="3.38831">
        <ele>994</ele>
        <time>2009-07-06T08:25:01Z</time>
      </trkpt>
      <trkpt lat="44.78127" lon="3.38833">
        <ele>995</ele>
        <time>2009-07-06T08:25:08Z</time>
      </trkpt>
      <trkpt lat="44.78124" lon="3.38837">
        <ele>995</ele>
        <time>2009-07-06T08:25:10Z</time>
      </trkpt>
      <trkpt lat="44.78116" lon="3.38841">
        <ele>993</ele>
        <time>2009-07-06T08:25:15Z</time>
      </trkpt>
      <trkpt lat="44.78107" lon="3.38842">
        <ele>989</ele>
        <time>2009-07-06T08:25:19Z</time>
      </trkpt>
      <trkpt lat="44.78085" lon="3.38846">
        <ele>985</ele>
        <time>2009-07-06T08:25:23Z</time>
      </trkpt>
      <trkpt lat="44.78064" lon="3.38851">
        <ele>984</ele>
        <time>2009-07-06T08:25:31Z</time>
      </trkpt>
      <trkpt lat="44.78061" lon="3.3885">
        <ele>983</ele>
        <time>2009-07-06T08:25:33Z</time>
      </trkpt>
      <trkpt lat="44.78061" lon="3.3885">
        <ele>983</ele>
        <time>2009-07-06T08:25:42Z</time>
      </trkpt>
      <trkpt lat="44.78069" lon="3.38853">
        <ele>985</ele>
        <time>2009-07-06T08:25:49Z</time>
      </trkpt>
      <trkpt lat="44.78071" lon="3.38851">
        <ele>984</ele>
        <time>2009-07-06T08:25:52Z</time>
      </trkpt>
      <trkpt lat="44.78076" lon="3.38833">
        <ele>984</ele>
        <time>2009-07-06T08:25:58Z</time>
      </trkpt>
      <trkpt lat="44.78084" lon="3.38816">
        <ele>979</ele>
        <time>2009-07-06T08:26:01Z</time>
      </trkpt>
      <trkpt lat="44.78088" lon="3.3881">
        <ele>979</ele>
        <time>2009-07-06T08:26:02Z</time>
      </trkpt>
      <trkpt lat="44.781" lon="3.38782">
        <ele>976</ele>
        <time>2009-07-06T08:26:10Z</time>
      </trkpt>
      <trkpt lat="44.781" lon="3.38781">
        <ele>977</ele>
        <time>2009-07-06T08:26:11Z</time>
      </trkpt>
      <trkpt lat="44.78104" lon="3.38778">
        <ele>977</ele>
        <time>2009-07-06T08:26:28Z</time>
      </trkpt>
      <trkpt lat="44.78105" lon="3.38778">
        <ele>977</ele>
        <time>2009-07-06T08:26:46Z</time>
      </trkpt>
      <trkpt lat="44.78104" lon="3.38778">
        <ele>977</ele>
        <time>2009-07-06T08:26:55Z</time>
      </trkpt>
      <trkpt lat="44.78101" lon="3.38777">
        <ele>977</ele>
        <time>2009-07-06T08:27:09Z</time>
      </trkpt>
      <trkpt lat="44.78101" lon="3.38778">
        <ele>976</ele>
        <time>2009-07-06T08:27:42Z</time>
      </trkpt>
      <trkpt lat="44.78101" lon="3.38779">
        <ele>976</ele>
        <time>2009-07-06T08:28:00Z</time>
      </trkpt>
      <trkpt lat="44.78103" lon="3.3878">
        <ele>976</ele>
        <time>2009-07-06T08:29:39Z</time>
      </trkpt>
      <trkpt lat="44.78091" lon="3.38777">
        <ele>975</ele>
        <time>2009-07-06T08:30:02Z</time>
      </trkpt>
      <trkpt lat="44.7809" lon="3.38771">
        <ele>975</ele>
        <time>2009-07-06T08:30:16Z</time>
      </trkpt>
      <trkpt lat="44.78098" lon="3.38758">
        <ele>973</ele>
        <time>2009-07-06T08:30:21Z</time>
      </trkpt>
      <trkpt lat="44.78111" lon="3.38746">
        <ele>972</ele>
        <time>2009-07-06T08:30:25Z</time>
      </trkpt>
      <trkpt lat="44.78113" lon="3.38732">
        <ele>971</ele>
        <time>2009-07-06T08:30:29Z</time>
      </trkpt>
      <trkpt lat="44.78119" lon="3.38734">
        <ele>971</ele>
        <time>2009-07-06T08:30:31Z</time>
      </trkpt>
      <trkpt lat="44.78134" lon="3.38712">
        <ele>970</ele>
        <time>2009-07-06T08:30:37Z</time>
      </trkpt>
      <trkpt lat="44.78136" lon="3.38698">
        <ele>967</ele>
        <time>2009-07-06T08:30:39Z</time>
      </trkpt>
      <trkpt lat="44.78126" lon="3.38666">
        <ele>965</ele>
        <time>2009-07-06T08:30:44Z</time>
      </trkpt>
      <trkpt lat="44.78116" lon="3.38638">
        <ele>964</ele>
        <time>2009-07-06T08:30:49Z</time>
      </trkpt>
      <trkpt lat="44.78053" lon="3.38592">
        <ele>963</ele>
        <time>2009-07-06T08:31:04Z</time>
      </trkpt>
      <trkpt lat="44.77998" lon="3.38544">
        <ele>960</ele>
        <time>2009-07-06T08:31:15Z</time>
      </trkpt>
      <trkpt lat="44.77979" lon="3.38533">
        <ele>958</ele>
        <time>2009-07-06T08:31:18Z</time>
      </trkpt>
      <trkpt lat="44.77951" lon="3.38513">
        <ele>955</ele>
        <time>2009-07-06T08:31:23Z</time>
      </trkpt>
      <trkpt lat="44.77935" lon="3.38485">
        <ele>954</ele>
        <time>2009-07-06T08:31:27Z</time>
      </trkpt>
      <trkpt lat="44.77917" lon="3.38427">
        <ele>950</ele>
        <time>2009-07-06T08:31:33Z</time>
      </trkpt>
      <trkpt lat="44.77914" lon="3.38416">
        <ele>950</ele>
        <time>2009-07-06T08:31:34Z</time>
      </trkpt>
      <trkpt lat="44.77885" lon="3.38325">
        <ele>945</ele>
        <time>2009-07-06T08:31:42Z</time>
      </trkpt>
      <trkpt lat="44.77874" lon="3.38289">
        <ele>942</ele>
        <time>2009-07-06T08:31:45Z</time>
      </trkpt>
      <trkpt lat="44.7786" lon="3.38244">
        <ele>942</ele>
        <time>2009-07-06T08:31:49Z</time>
      </trkpt>
      <trkpt lat="44.77821" lon="3.3812">
        <ele>942</ele>
        <time>2009-07-06T08:32:03Z</time>
      </trkpt>
      <trkpt lat="44.7777" lon="3.37964">
        <ele>942</ele>
        <time>2009-07-06T08:32:23Z</time>
      </trkpt>
      <trkpt lat="44.77759" lon="3.37944">
        <ele>941</ele>
        <time>2009-07-06T08:32:26Z</time>
      </trkpt>
      <trkpt lat="44.77767" lon="3.37919">
        <ele>942</ele>
        <time>2009-07-06T08:32:32Z</time>
      </trkpt>
      <trkpt lat="44.77771" lon="3.37918">
        <ele>942</ele>
        <time>2009-07-06T08:32:33Z</time>
      </trkpt>
      <trkpt lat="44.77816" lon="3.37905">
        <ele>943</ele>
        <time>2009-07-06T08:32:43Z</time>
      </trkpt>
      <trkpt lat="44.77824" lon="3.379">
        <ele>944</ele>
        <time>2009-07-06T08:32:45Z</time>
      </trkpt>
      <trkpt lat="44.77846" lon="3.37867">
        <ele>944</ele>
        <time>2009-07-06T08:32:52Z</time>
      </trkpt>
      <trkpt lat="44.77858" lon="3.37848">
        <ele>943</ele>
        <time>2009-07-06T08:32:56Z</time>
      </trkpt>
      <trkpt lat="44.77872" lon="3.37823">
        <ele>943</ele>
        <time>2009-07-06T08:33:01Z</time>
      </trkpt>
      <trkpt lat="44.77879" lon="3.37774">
        <ele>945</ele>
        <time>2009-07-06T08:33:10Z</time>
      </trkpt>
      <trkpt lat="44.77841" lon="3.37695">
        <ele>948</ele>
        <time>2009-07-06T08:33:27Z</time>
      </trkpt>
      <trkpt lat="44.77833" lon="3.37678">
        <ele>950</ele>
        <time>2009-07-06T08:33:32Z</time>
      </trkpt>
      <trkpt lat="44.77827" lon="3.37673">
        <ele>951</ele>
        <time>2009-07-06T08:33:35Z</time>
      </trkpt>
      <trkpt lat="44.77822" lon="3.37669">
        <ele>952</ele>
        <time>2009-07-06T08:33:38Z</time>
      </trkpt>
      <trkpt lat="44.77808" lon="3.37643">
        <ele>956</ele>
        <time>2009-07-06T08:33:49Z</time>
      </trkpt>
      <trkpt lat="44.77783" lon="3.37594">
        <ele>959</ele>
        <time>2009-07-06T08:34:05Z</time>
      </trkpt>
      <trkpt lat="44.77758" lon="3.3752">
        <ele>962</ele>
        <time>2009-07-06T08:34:26Z</time>
      </trkpt>
      <trkpt lat="44.77741" lon="3.37439">
        <ele>965</ele>
        <time>2009-07-06T08:34:48Z</time>
      </trkpt>
      <trkpt lat="44.77745" lon="3.37364">
        <ele>967</ele>
        <time>2009-07-06T08:35:07Z</time>
      </trkpt>
      <trkpt lat="44.77753" lon="3.37334">
        <ele>968</ele>
        <time>2009-07-06T08:35:16Z</time>
      </trkpt>
      <trkpt lat="44.77754" lon="3.37326">
        <ele>971</ele>
        <time>2009-07-06T08:35:19Z</time>
      </trkpt>
      <trkpt lat="44.77753" lon="3.37317">
        <ele>972</ele>
        <time>2009-07-06T08:35:22Z</time>
      </trkpt>
      <trkpt lat="44.77748" lon="3.37286">
        <ele>975</ele>
        <time>2009-07-06T08:35:34Z</time>
      </trkpt>
      <trkpt lat="44.77747" lon="3.3727">
        <ele>979</ele>
        <time>2009-07-06T08:35:40Z</time>
      </trkpt>
      <trkpt lat="44.77746" lon="3.37267">
        <ele>979</ele>
        <time>2009-07-06T08:35:41Z</time>
      </trkpt>
      <trkpt lat="44.77742" lon="3.37225">
        <ele>982</ele>
        <time>2009-07-06T08:35:57Z</time>
      </trkpt>
      <trkpt lat="44.77741" lon="3.37201">
        <ele>985</ele>
        <time>2009-07-06T08:36:06Z</time>
      </trkpt>
      <trkpt lat="44.77737" lon="3.37168">
        <ele>988</ele>
        <time>2009-07-06T08:36:18Z</time>
      </trkpt>
      <trkpt lat="44.77736" lon="3.37128">
        <ele>991</ele>
        <time>2009-07-06T08:36:33Z</time>
      </trkpt>
      <trkpt lat="44.77728" lon="3.37084">
        <ele>994</ele>
        <time>2009-07-06T08:36:50Z</time>
      </trkpt>
      <trkpt lat="44.77726" lon="3.3707">
        <ele>995</ele>
        <time>2009-07-06T08:36:55Z</time>
      </trkpt>
      <trkpt lat="44.77725" lon="3.37065">
        <ele>996</ele>
        <time>2009-07-06T08:36:57Z</time>
      </trkpt>
      <trkpt lat="44.77717" lon="3.37037">
        <ele>996</ele>
        <time>2009-07-06T08:37:09Z</time>
      </trkpt>
      <trkpt lat="44.77715" lon="3.37031">
        <ele>995</ele>
        <time>2009-07-06T08:37:25Z</time>
      </trkpt>
      <trkpt lat="44.77717" lon="3.37038">
        <ele>996</ele>
        <time>2009-07-06T08:37:37Z</time>
      </trkpt>
      <trkpt lat="44.77716" lon="3.37039">
        <ele>996</ele>
        <time>2009-07-06T08:37:56Z</time>
      </trkpt>
      <trkpt lat="44.77711" lon="3.37018">
        <ele>995</ele>
        <time>2009-07-06T08:38:53Z</time>
      </trkpt>
      <trkpt lat="44.77698" lon="3.36991">
        <ele>993</ele>
        <time>2009-07-06T08:38:58Z</time>
      </trkpt>
      <trkpt lat="44.77709" lon="3.36966">
        <ele>989</ele>
        <time>2009-07-06T08:39:02Z</time>
      </trkpt>
      <trkpt lat="44.7773" lon="3.36948">
        <ele>983</ele>
        <time>2009-07-06T08:39:05Z</time>
      </trkpt>
      <trkpt lat="44.77752" lon="3.36928">
        <ele>982</ele>
        <time>2009-07-06T08:39:08Z</time>
      </trkpt>
      <trkpt lat="44.77772" lon="3.36908">
        <ele>980</ele>
        <time>2009-07-06T08:39:11Z</time>
      </trkpt>
      <trkpt lat="44.77786" lon="3.36893">
        <ele>977</ele>
        <time>2009-07-06T08:39:13Z</time>
      </trkpt>
      <trkpt lat="44.77794" lon="3.36886">
        <ele>975</ele>
        <time>2009-07-06T08:39:14Z</time>
      </trkpt>
      <trkpt lat="44.77818" lon="3.36872">
        <ele>971</ele>
        <time>2009-07-06T08:39:17Z</time>
      </trkpt>
      <trkpt lat="44.77842" lon="3.36864">
        <ele>972</ele>
        <time>2009-07-06T08:39:20Z</time>
      </trkpt>
      <trkpt lat="44.77877" lon="3.3684">
        <ele>972</ele>
        <time>2009-07-06T08:39:25Z</time>
      </trkpt>
      <trkpt lat="44.77898" lon="3.36812">
        <ele>970</ele>
        <time>2009-07-06T08:39:29Z</time>
      </trkpt>
      <trkpt lat="44.7791" lon="3.36793">
        <ele>969</ele>
        <time>2009-07-06T08:39:32Z</time>
      </trkpt>
      <trkpt lat="44.77898" lon="3.36785">
        <ele>967</ele>
        <time>2009-07-06T08:39:36Z</time>
      </trkpt>
      <trkpt lat="44.77863" lon="3.36795">
        <ele>960</ele>
        <time>2009-07-06T08:39:41Z</time>
      </trkpt>
      <trkpt lat="44.77856" lon="3.36798">
        <ele>959</ele>
        <time>2009-07-06T08:39:42Z</time>
      </trkpt>
      <trkpt lat="44.77832" lon="3.36784">
        <ele>955</ele>
        <time>2009-07-06T08:39:46Z</time>
      </trkpt>
      <trkpt lat="44.77812" lon="3.36765">
        <ele>954</ele>
        <time>2009-07-06T08:39:49Z</time>
      </trkpt>
      <trkpt lat="44.77797" lon="3.3676">
        <ele>953</ele>
        <time>2009-07-06T08:39:52Z</time>
      </trkpt>
      <trkpt lat="44.7778" lon="3.36752">
        <ele>950</ele>
        <time>2009-07-06T08:39:55Z</time>
      </trkpt>
      <trkpt lat="44.7777" lon="3.36718">
        <ele>947</ele>
        <time>2009-07-06T08:40:00Z</time>
      </trkpt>
      <trkpt lat="44.77773" lon="3.36714">
        <ele>946</ele>
        <time>2009-07-06T08:40:01Z</time>
      </trkpt>
      <trkpt lat="44.77779" lon="3.36707">
        <ele>945</ele>
        <time>2009-07-06T08:40:03Z</time>
      </trkpt>
      <trkpt lat="44.77763" lon="3.36702">
        <ele>944</ele>
        <time>2009-07-06T08:40:09Z</time>
      </trkpt>
      <trkpt lat="44.77724" lon="3.36707">
        <ele>942</ele>
        <time>2009-07-06T08:40:18Z</time>
      </trkpt>
      <trkpt lat="44.77718" lon="3.36686">
        <ele>938</ele>
        <time>2009-07-06T08:40:22Z</time>
      </trkpt>
      <trkpt lat="44.77726" lon="3.36638">
        <ele>934</ele>
        <time>2009-07-06T08:40:27Z</time>
      </trkpt>
      <trkpt lat="44.77729" lon="3.36617">
        <ele>933</ele>
        <time>2009-07-06T08:40:29Z</time>
      </trkpt>
      <trkpt lat="44.7773" lon="3.36595">
        <ele>932</ele>
        <time>2009-07-06T08:40:31Z</time>
      </trkpt>
      <trkpt lat="44.77728" lon="3.36539">
        <ele>932</ele>
        <time>2009-07-06T08:40:36Z</time>
      </trkpt>
      <trkpt lat="44.7771" lon="3.36503">
        <ele>932</ele>
        <time>2009-07-06T08:40:41Z</time>
      </trkpt>
      <trkpt lat="44.77683" lon="3.36492">
        <ele>930</ele>
        <time>2009-07-06T08:40:45Z</time>
      </trkpt>
      <trkpt lat="44.77669" lon="3.36491">
        <ele>932</ele>
        <time>2009-07-06T08:40:47Z</time>
      </trkpt>
      <trkpt lat="44.77646" lon="3.36464">
        <ele>932</ele>
        <time>2009-07-06T08:40:55Z</time>
      </trkpt>
      <trkpt lat="44.77643" lon="3.36439">
        <ele>932</ele>
        <time>2009-07-06T08:41:01Z</time>
      </trkpt>
      <trkpt lat="44.7762" lon="3.36461">
        <ele>933</ele>
        <time>2009-07-06T08:41:10Z</time>
      </trkpt>
      <trkpt lat="44.77613" lon="3.36471">
        <ele>933</ele>
        <time>2009-07-06T08:41:13Z</time>
      </trkpt>
      <trkpt lat="44.77609" lon="3.36463">
        <ele>933</ele>
        <time>2009-07-06T08:41:17Z</time>
      </trkpt>
      <trkpt lat="44.77609" lon="3.36457">
        <ele>933</ele>
        <time>2009-07-06T08:41:19Z</time>
      </trkpt>
      <trkpt lat="44.77623" lon="3.36433">
        <ele>936</ele>
        <time>2009-07-06T08:41:29Z</time>
      </trkpt>
      <trkpt lat="44.77631" lon="3.36418">
        <ele>939</ele>
        <time>2009-07-06T08:41:36Z</time>
      </trkpt>
      <trkpt lat="44.77632" lon="3.36417">
        <ele>940</ele>
        <time>2009-07-06T08:41:37Z</time>
      </trkpt>
      <trkpt lat="44.77633" lon="3.36416">
        <ele>940</ele>
        <time>2009-07-06T08:41:38Z</time>
      </trkpt>
      <trkpt lat="44.7764" lon="3.36387">
        <ele>943</ele>
        <time>2009-07-06T08:41:49Z</time>
      </trkpt>
      <trkpt lat="44.77632" lon="3.36365">
        <ele>945</ele>
        <time>2009-07-06T08:41:58Z</time>
      </trkpt>
      <trkpt lat="44.77627" lon="3.36384">
        <ele>947</ele>
        <time>2009-07-06T08:42:08Z</time>
      </trkpt>
      <trkpt lat="44.77622" lon="3.364">
        <ele>949</ele>
        <time>2009-07-06T08:42:15Z</time>
      </trkpt>
      <trkpt lat="44.77604" lon="3.36398">
        <ele>951</ele>
        <time>2009-07-06T08:42:26Z</time>
      </trkpt>
      <trkpt lat="44.776" lon="3.36398">
        <ele>952</ele>
        <time>2009-07-06T08:42:28Z</time>
      </trkpt>
      <trkpt lat="44.77595" lon="3.36397">
        <ele>953</ele>
        <time>2009-07-06T08:42:30Z</time>
      </trkpt>
      <trkpt lat="44.77559" lon="3.36405">
        <ele>955</ele>
        <time>2009-07-06T08:42:43Z</time>
      </trkpt>
      <trkpt lat="44.77558" lon="3.36403">
        <ele>955</ele>
        <time>2009-07-06T08:43:03Z</time>
      </trkpt>
      <trkpt lat="44.77533" lon="3.36399">
        <ele>957</ele>
        <time>2009-07-06T08:43:14Z</time>
      </trkpt>
      <trkpt lat="44.77494" lon="3.36399">
        <ele>959</ele>
        <time>2009-07-06T08:43:30Z</time>
      </trkpt>
      <trkpt lat="44.77473" lon="3.36406">
        <ele>960</ele>
        <time>2009-07-06T08:43:39Z</time>
      </trkpt>
      <trkpt lat="44.77448" lon="3.364">
        <ele>964</ele>
        <time>2009-07-06T08:43:52Z</time>
      </trkpt>
      <trkpt lat="44.77429" lon="3.36397">
        <ele>967</ele>
        <time>2009-07-06T08:44:01Z</time>
      </trkpt>
      <trkpt lat="44.77412" lon="3.36398">
        <ele>969</ele>
        <time>2009-07-06T08:44:10Z</time>
      </trkpt>
      <trkpt lat="44.77408" lon="3.36399">
        <ele>970</ele>
        <time>2009-07-06T08:44:13Z</time>
      </trkpt>
      <trkpt lat="44.77391" lon="3.36391">
        <ele>974</ele>
        <time>2009-07-06T08:44:26Z</time>
      </trkpt>
      <trkpt lat="44.77373" lon="3.36384">
        <ele>975</ele>
        <time>2009-07-06T08:44:37Z</time>
      </trkpt>
      <trkpt lat="44.77366" lon="3.36379">
        <ele>976</ele>
        <time>2009-07-06T08:44:42Z</time>
      </trkpt>
      <trkpt lat="44.77349" lon="3.36374">
        <ele>978</ele>
        <time>2009-07-06T08:44:50Z</time>
      </trkpt>
      <trkpt lat="44.77321" lon="3.36347">
        <ele>982</ele>
        <time>2009-07-06T08:45:05Z</time>
      </trkpt>
      <trkpt lat="44.77312" lon="3.36309">
        <ele>982</ele>
        <time>2009-07-06T08:45:17Z</time>
      </trkpt>
      <trkpt lat="44.77307" lon="3.36278">
        <ele>986</ele>
        <time>2009-07-06T08:45:28Z</time>
      </trkpt>
      <trkpt lat="44.77306" lon="3.36276">
        <ele>985</ele>
        <time>2009-07-06T08:45:29Z</time>
      </trkpt>
      <trkpt lat="44.77305" lon="3.36275">
        <ele>987</ele>
        <time>2009-07-06T08:45:32Z</time>
      </trkpt>
      <trkpt lat="44.77305" lon="3.36274">
        <ele>986</ele>
        <time>2009-07-06T08:45:33Z</time>
      </trkpt>
      <trkpt lat="44.77291" lon="3.3624">
        <ele>989</ele>
        <time>2009-07-06T08:45:47Z</time>
      </trkpt>
      <trkpt lat="44.77289" lon="3.36238">
        <ele>989</ele>
        <time>2009-07-06T08:45:48Z</time>
      </trkpt>
      <trkpt lat="44.7728" lon="3.36233">
        <ele>989</ele>
        <time>2009-07-06T08:45:52Z</time>
      </trkpt>
      <trkpt lat="44.77256" lon="3.36211">
        <ele>990</ele>
        <time>2009-07-06T08:46:03Z</time>
      </trkpt>
      <trkpt lat="44.77249" lon="3.36209">
        <ele>990</ele>
        <time>2009-07-06T08:46:06Z</time>
      </trkpt>
      <trkpt lat="44.77232" lon="3.36193">
        <ele>994</ele>
        <time>2009-07-06T08:46:15Z</time>
      </trkpt>
      <trkpt lat="44.77225" lon="3.36186">
        <ele>995</ele>
        <time>2009-07-06T08:46:19Z</time>
      </trkpt>
      <trkpt lat="44.77219" lon="3.36181">
        <ele>996</ele>
        <time>2009-07-06T08:46:24Z</time>
      </trkpt>
      <trkpt lat="44.77203" lon="3.36158">
        <ele>999</ele>
        <time>2009-07-06T08:46:34Z</time>
      </trkpt>
      <trkpt lat="44.77177" lon="3.36135">
        <ele>1001</ele>
        <time>2009-07-06T08:46:48Z</time>
      </trkpt>
      <trkpt lat="44.77154" lon="3.36109">
        <ele>1004</ele>
        <time>2009-07-06T08:47:01Z</time>
      </trkpt>
      <trkpt lat="44.77128" lon="3.36082">
        <ele>1006</ele>
        <time>2009-07-06T08:47:15Z</time>
      </trkpt>
      <trkpt lat="44.77109" lon="3.36056">
        <ele>1009</ele>
        <time>2009-07-06T08:47:27Z</time>
      </trkpt>
      <trkpt lat="44.77108" lon="3.36056">
        <ele>1010</ele>
        <time>2009-07-06T08:47:28Z</time>
      </trkpt>
      <trkpt lat="44.77107" lon="3.36055">
        <ele>1010</ele>
        <time>2009-07-06T08:47:30Z</time>
      </trkpt>
      <trkpt lat="44.77097" lon="3.36045">
        <ele>1010</ele>
        <time>2009-07-06T08:47:38Z</time>
      </trkpt>
      <trkpt lat="44.77082" lon="3.36029">
        <ele>1013</ele>
        <time>2009-07-06T08:47:47Z</time>
      </trkpt>
      <trkpt lat="44.77081" lon="3.36027">
        <ele>1015</ele>
        <time>2009-07-06T08:47:49Z</time>
      </trkpt>
      <trkpt lat="44.77076" lon="3.36015">
        <ele>1016</ele>
        <time>2009-07-06T08:47:56Z</time>
      </trkpt>
      <trkpt lat="44.77067" lon="3.36008">
        <ele>1017</ele>
        <time>2009-07-06T08:48:02Z</time>
      </trkpt>
      <trkpt lat="44.77052" lon="3.3599">
        <ele>1019</ele>
        <time>2009-07-06T08:48:12Z</time>
      </trkpt>
      <trkpt lat="44.77042" lon="3.35977">
        <ele>1022</ele>
        <time>2009-07-06T08:48:19Z</time>
      </trkpt>
      <trkpt lat="44.77034" lon="3.35968">
        <ele>1024</ele>
        <time>2009-07-06T08:48:25Z</time>
      </trkpt>
      <trkpt lat="44.77017" lon="3.35947">
        <ele>1027</ele>
        <time>2009-07-06T08:48:38Z</time>
      </trkpt>
      <trkpt lat="44.77008" lon="3.35939">
        <ele>1027</ele>
        <time>2009-07-06T08:48:52Z</time>
      </trkpt>
      <trkpt lat="44.7701" lon="3.3594">
        <ele>1027</ele>
        <time>2009-07-06T08:49:04Z</time>
      </trkpt>
      <trkpt lat="44.7701" lon="3.35939">
        <ele>1026</ele>
        <time>2009-07-06T08:54:15Z</time>
      </trkpt>
      <trkpt lat="44.77008" lon="3.35945">
        <ele>1026</ele>
        <time>2009-07-06T08:55:25Z</time>
      </trkpt>
      <trkpt lat="44.77006" lon="3.35943">
        <ele>1027</ele>
        <time>2009-07-06T08:55:47Z</time>
      </trkpt>
      <trkpt lat="44.77005" lon="3.35941">
        <ele>1027</ele>
        <time>2009-07-06T08:55:57Z</time>
      </trkpt>
      <trkpt lat="44.77004" lon="3.35938">
        <ele>1027</ele>
        <time>2009-07-06T08:55:59Z</time>
      </trkpt>
      <trkpt lat="44.76992" lon="3.35925">
        <ele>1027</ele>
        <time>2009-07-06T08:56:07Z</time>
      </trkpt>
      <trkpt lat="44.76963" lon="3.35905">
        <ele>1028</ele>
        <time>2009-07-06T08:56:18Z</time>
      </trkpt>
      <trkpt lat="44.76928" lon="3.35892">
        <ele>1029</ele>
        <time>2009-07-06T08:56:31Z</time>
      </trkpt>
      <trkpt lat="44.76895" lon="3.35891">
        <ele>1030</ele>
        <time>2009-07-06T08:56:43Z</time>
      </trkpt>
      <trkpt lat="44.7687" lon="3.35891">
        <ele>1033</ele>
        <time>2009-07-06T08:56:52Z</time>
      </trkpt>
      <trkpt lat="44.7684" lon="3.35879">
        <ele>1037</ele>
        <time>2009-07-06T08:57:04Z</time>
      </trkpt>
      <trkpt lat="44.76805" lon="3.35861">
        <ele>1039</ele>
        <time>2009-07-06T08:57:18Z</time>
      </trkpt>
      <trkpt lat="44.76767" lon="3.35846">
        <ele>1041</ele>
        <time>2009-07-06T08:57:31Z</time>
      </trkpt>
      <trkpt lat="44.76752" lon="3.35836">
        <ele>1043</ele>
        <time>2009-07-06T08:57:36Z</time>
      </trkpt>
      <trkpt lat="44.76707" lon="3.35809">
        <ele>1046</ele>
        <time>2009-07-06T08:57:51Z</time>
      </trkpt>
      <trkpt lat="44.76644" lon="3.3579">
        <ele>1047</ele>
        <time>2009-07-06T08:58:09Z</time>
      </trkpt>
      <trkpt lat="44.76633" lon="3.35791">
        <ele>1047</ele>
        <time>2009-07-06T08:58:12Z</time>
      </trkpt>
      <trkpt lat="44.76588" lon="3.35783">
        <ele>1046</ele>
        <time>2009-07-06T08:58:22Z</time>
      </trkpt>
      <trkpt lat="44.76506" lon="3.35782">
        <ele>1043</ele>
        <time>2009-07-06T08:58:37Z</time>
      </trkpt>
      <trkpt lat="44.76486" lon="3.3577">
        <ele>1042</ele>
        <time>2009-07-06T08:58:41Z</time>
      </trkpt>
      <trkpt lat="44.76439" lon="3.35725">
        <ele>1040</ele>
        <time>2009-07-06T08:58:50Z</time>
      </trkpt>
      <trkpt lat="44.7641" lon="3.35712">
        <ele>1039</ele>
        <time>2009-07-06T08:58:55Z</time>
      </trkpt>
      <trkpt lat="44.76319" lon="3.35698">
        <ele>1038</ele>
        <time>2009-07-06T08:59:10Z</time>
      </trkpt>
      <trkpt lat="44.7623" lon="3.357">
        <ele>1036</ele>
        <time>2009-07-06T08:59:23Z</time>
      </trkpt>
      <trkpt lat="44.76162" lon="3.35688">
        <ele>1036</ele>
        <time>2009-07-06T08:59:35Z</time>
      </trkpt>
      <trkpt lat="44.76148" lon="3.35688">
        <ele>1038</ele>
        <time>2009-07-06T08:59:38Z</time>
      </trkpt>
      <trkpt lat="44.76121" lon="3.35684">
        <ele>1037</ele>
        <time>2009-07-06T08:59:46Z</time>
      </trkpt>
      <trkpt lat="44.7612" lon="3.35677">
        <ele>1037</ele>
        <time>2009-07-06T08:59:48Z</time>
      </trkpt>
      <trkpt lat="44.76122" lon="3.3564">
        <ele>1035</ele>
        <time>2009-07-06T08:59:56Z</time>
      </trkpt>
      <trkpt lat="44.76121" lon="3.35595">
        <ele>1033</ele>
        <time>2009-07-06T09:00:08Z</time>
      </trkpt>
      <trkpt lat="44.76116" lon="3.35588">
        <ele>1032</ele>
        <time>2009-07-06T09:00:10Z</time>
      </trkpt>
      <trkpt lat="44.76103" lon="3.35582">
        <ele>1030</ele>
        <time>2009-07-06T09:00:13Z</time>
      </trkpt>
      <trkpt lat="44.76077" lon="3.35577">
        <ele>1028</ele>
        <time>2009-07-06T09:00:17Z</time>
      </trkpt>
      <trkpt lat="44.76053" lon="3.35582">
        <ele>1027</ele>
        <time>2009-07-06T09:00:21Z</time>
      </trkpt>
      <trkpt lat="44.7603" lon="3.356">
        <ele>1025</ele>
        <time>2009-07-06T09:00:25Z</time>
      </trkpt>
      <trkpt lat="44.76024" lon="3.35605">
        <ele>1024</ele>
        <time>2009-07-06T09:00:26Z</time>
      </trkpt>
      <trkpt lat="44.7601" lon="3.35614">
        <ele>1022</ele>
        <time>2009-07-06T09:00:28Z</time>
      </trkpt>
      <trkpt lat="44.75973" lon="3.35632">
        <ele>1023</ele>
        <time>2009-07-06T09:00:33Z</time>
      </trkpt>
      <trkpt lat="44.75939" lon="3.35664">
        <ele>1025</ele>
        <time>2009-07-06T09:00:40Z</time>
      </trkpt>
      <trkpt lat="44.75895" lon="3.35695">
        <ele>1028</ele>
        <time>2009-07-06T09:00:53Z</time>
      </trkpt>
      <trkpt lat="44.75846" lon="3.35726">
        <ele>1031</ele>
        <time>2009-07-06T09:01:07Z</time>
      </trkpt>
      <trkpt lat="44.75801" lon="3.35751">
        <ele>1034</ele>
        <time>2009-07-06T09:01:20Z</time>
      </trkpt>
      <trkpt lat="44.75732" lon="3.35785">
        <ele>1038</ele>
        <time>2009-07-06T09:01:39Z</time>
      </trkpt>
      <trkpt lat="44.75728" lon="3.35787">
        <ele>1038</ele>
        <time>2009-07-06T09:01:40Z</time>
      </trkpt>
      <trkpt lat="44.7565" lon="3.35826">
        <ele>1040</ele>
        <time>2009-07-06T09:02:00Z</time>
      </trkpt>
      <trkpt lat="44.75628" lon="3.35836">
        <ele>1040</ele>
        <time>2009-07-06T09:02:05Z</time>
      </trkpt>
      <trkpt lat="44.75566" lon="3.35849">
        <ele>1041</ele>
        <time>2009-07-06T09:02:21Z</time>
      </trkpt>
      <trkpt lat="44.75533" lon="3.35851">
        <ele>1040</ele>
        <time>2009-07-06T09:02:35Z</time>
      </trkpt>
      <trkpt lat="44.75524" lon="3.35851">
        <ele>1040</ele>
        <time>2009-07-06T09:02:44Z</time>
      </trkpt>
      <trkpt lat="44.75523" lon="3.3585">
        <ele>1040</ele>
        <time>2009-07-06T09:03:40Z</time>
      </trkpt>
      <trkpt lat="44.75501" lon="3.35846">
        <ele>1038</ele>
        <time>2009-07-06T09:03:46Z</time>
      </trkpt>
      <trkpt lat="44.7545" lon="3.35844">
        <ele>1034</ele>
        <time>2009-07-06T09:03:54Z</time>
      </trkpt>
      <trkpt lat="44.75398" lon="3.35828">
        <ele>1033</ele>
        <time>2009-07-06T09:04:01Z</time>
      </trkpt>
      <trkpt lat="44.75386" lon="3.35827">
        <ele>1034</ele>
        <time>2009-07-06T09:04:03Z</time>
      </trkpt>
      <trkpt lat="44.7536" lon="3.35809">
        <ele>1035</ele>
        <time>2009-07-06T09:04:11Z</time>
      </trkpt>
      <trkpt lat="44.75326" lon="3.35765">
        <ele>1035</ele>
        <time>2009-07-06T09:04:25Z</time>
      </trkpt>
      <trkpt lat="44.75297" lon="3.35726">
        <ele>1036</ele>
        <time>2009-07-06T09:04:35Z</time>
      </trkpt>
      <trkpt lat="44.75281" lon="3.35707">
        <ele>1037</ele>
        <time>2009-07-06T09:04:40Z</time>
      </trkpt>
      <trkpt lat="44.75263" lon="3.35692">
        <ele>1038</ele>
        <time>2009-07-06T09:04:45Z</time>
      </trkpt>
      <trkpt lat="44.752" lon="3.35619">
        <ele>1040</ele>
        <time>2009-07-06T09:05:04Z</time>
      </trkpt>
      <trkpt lat="44.75176" lon="3.35591">
        <ele>1042</ele>
        <time>2009-07-06T09:05:11Z</time>
      </trkpt>
      <trkpt lat="44.75165" lon="3.35559">
        <ele>1043</ele>
        <time>2009-07-06T09:05:17Z</time>
      </trkpt>
      <trkpt lat="44.75161" lon="3.35549">
        <ele>1044</ele>
        <time>2009-07-06T09:05:19Z</time>
      </trkpt>
      <trkpt lat="44.7514" lon="3.35526">
        <ele>1044</ele>
        <time>2009-07-06T09:05:25Z</time>
      </trkpt>
      <trkpt lat="44.7506" lon="3.35478">
        <ele>1044</ele>
        <time>2009-07-06T09:05:44Z</time>
      </trkpt>
      <trkpt lat="44.75046" lon="3.3547">
        <ele>1044</ele>
        <time>2009-07-06T09:05:47Z</time>
      </trkpt>
      <trkpt lat="44.74987" lon="3.35443">
        <ele>1043</ele>
        <time>2009-07-06T09:06:00Z</time>
      </trkpt>
      <trkpt lat="44.74928" lon="3.3541">
        <ele>1041</ele>
        <time>2009-07-06T09:06:12Z</time>
      </trkpt>
      <trkpt lat="44.7488" lon="3.35345">
        <ele>1037</ele>
        <time>2009-07-06T09:06:23Z</time>
      </trkpt>
      <trkpt lat="44.74876" lon="3.35337">
        <ele>1038</ele>
        <time>2009-07-06T09:06:24Z</time>
      </trkpt>
      <trkpt lat="44.74863" lon="3.35303">
        <ele>1037</ele>
        <time>2009-07-06T09:06:28Z</time>
      </trkpt>
      <trkpt lat="44.74843" lon="3.35258">
        <ele>1033</ele>
        <time>2009-07-06T09:06:33Z</time>
      </trkpt>
      <trkpt lat="44.74785" lon="3.35148">
        <ele>1030</ele>
        <time>2009-07-06T09:06:44Z</time>
      </trkpt>
      <trkpt lat="44.74713" lon="3.35068">
        <ele>1031</ele>
        <time>2009-07-06T09:06:58Z</time>
      </trkpt>
      <trkpt lat="44.74686" lon="3.35051">
        <ele>1031</ele>
        <time>2009-07-06T09:07:03Z</time>
      </trkpt>
      <trkpt lat="44.74676" lon="3.35043">
        <ele>1031</ele>
        <time>2009-07-06T09:07:05Z</time>
      </trkpt>
      <trkpt lat="44.74576" lon="3.3501">
        <ele>1031</ele>
        <time>2009-07-06T09:07:22Z</time>
      </trkpt>
      <trkpt lat="44.74516" lon="3.3503">
        <ele>1031</ele>
        <time>2009-07-06T09:07:32Z</time>
      </trkpt>
      <trkpt lat="44.74492" lon="3.35055">
        <ele>1030</ele>
        <time>2009-07-06T09:07:37Z</time>
      </trkpt>
      <trkpt lat="44.74464" lon="3.35122">
        <ele>1027</ele>
        <time>2009-07-06T09:07:47Z</time>
      </trkpt>
      <trkpt lat="44.7445" lon="3.35171">
        <ele>1023</ele>
        <time>2009-07-06T09:07:52Z</time>
      </trkpt>
      <trkpt lat="44.74443" lon="3.35206">
        <ele>1019</ele>
        <time>2009-07-06T09:07:55Z</time>
      </trkpt>
      <trkpt lat="44.74425" lon="3.35246">
        <ele>1016</ele>
        <time>2009-07-06T09:07:59Z</time>
      </trkpt>
      <trkpt lat="44.7442" lon="3.35253">
        <ele>1016</ele>
        <time>2009-07-06T09:08:00Z</time>
      </trkpt>
      <trkpt lat="44.74393" lon="3.3529">
        <ele>1014</ele>
        <time>2009-07-06T09:08:09Z</time>
      </trkpt>
      <trkpt lat="44.74392" lon="3.35292">
        <ele>1014</ele>
        <time>2009-07-06T09:08:44Z</time>
      </trkpt>
      <trkpt lat="44.74373" lon="3.35302">
        <ele>1010</ele>
        <time>2009-07-06T09:08:53Z</time>
      </trkpt>
      <trkpt lat="44.74363" lon="3.35306">
        <ele>1007</ele>
        <time>2009-07-06T09:08:56Z</time>
      </trkpt>
      <trkpt lat="44.74354" lon="3.35308">
        <ele>1004</ele>
        <time>2009-07-06T09:08:59Z</time>
      </trkpt>
      <trkpt lat="44.74347" lon="3.35309">
        <ele>1001</ele>
        <time>2009-07-06T09:09:01Z</time>
      </trkpt>
      <trkpt lat="44.74328" lon="3.35299">
        <ele>998</ele>
        <time>2009-07-06T09:09:08Z</time>
      </trkpt>
      <trkpt lat="44.74323" lon="3.35299">
        <ele>997</ele>
        <time>2009-07-06T09:09:09Z</time>
      </trkpt>
      <trkpt lat="44.74309" lon="3.35295">
        <ele>995</ele>
        <time>2009-07-06T09:09:12Z</time>
      </trkpt>
      <trkpt lat="44.74293" lon="3.35296">
        <ele>992</ele>
        <time>2009-07-06T09:09:15Z</time>
      </trkpt>
      <trkpt lat="44.74279" lon="3.35298">
        <ele>988</ele>
        <time>2009-07-06T09:09:18Z</time>
      </trkpt>
      <trkpt lat="44.74274" lon="3.35298">
        <ele>988</ele>
        <time>2009-07-06T09:09:19Z</time>
      </trkpt>
      <trkpt lat="44.74267" lon="3.353">
        <ele>986</ele>
        <time>2009-07-06T09:09:21Z</time>
      </trkpt>
      <trkpt lat="44.74246" lon="3.35301">
        <ele>982</ele>
        <time>2009-07-06T09:09:26Z</time>
      </trkpt>
      <trkpt lat="44.74223" lon="3.35298">
        <ele>977</ele>
        <time>2009-07-06T09:09:31Z</time>
      </trkpt>
      <trkpt lat="44.74212" lon="3.35302">
        <ele>975</ele>
        <time>2009-07-06T09:09:34Z</time>
      </trkpt>
      <trkpt lat="44.74196" lon="3.35302">
        <ele>972</ele>
        <time>2009-07-06T09:09:38Z</time>
      </trkpt>
      <trkpt lat="44.74178" lon="3.35302">
        <ele>968</ele>
        <time>2009-07-06T09:09:41Z</time>
      </trkpt>
      <trkpt lat="44.74159" lon="3.35304">
        <ele>965</ele>
        <time>2009-07-06T09:09:44Z</time>
      </trkpt>
      <trkpt lat="44.74147" lon="3.35314">
        <ele>962</ele>
        <time>2009-07-06T09:09:47Z</time>
      </trkpt>
      <trkpt lat="44.74141" lon="3.35315">
        <ele>962</ele>
        <time>2009-07-06T09:09:52Z</time>
      </trkpt>
      <trkpt lat="44.74141" lon="3.35314">
        <ele>962</ele>
        <time>2009-07-06T09:09:53Z</time>
      </trkpt>
      <trkpt lat="44.7415" lon="3.35305">
        <ele>963</ele>
        <time>2009-07-06T09:10:01Z</time>
      </trkpt>
      <trkpt lat="44.74146" lon="3.35303">
        <ele>963</ele>
        <time>2009-07-06T09:10:03Z</time>
      </trkpt>
      <trkpt lat="44.74142" lon="3.35302">
        <ele>962</ele>
        <time>2009-07-06T09:10:05Z</time>
      </trkpt>
      <trkpt lat="44.74133" lon="3.35308">
        <ele>960</ele>
        <time>2009-07-06T09:10:11Z</time>
      </trkpt>
      <trkpt lat="44.74134" lon="3.35307">
        <ele>960</ele>
        <time>2009-07-06T09:10:28Z</time>
      </trkpt>
      <trkpt lat="44.74136" lon="3.35308">
        <ele>961</ele>
        <time>2009-07-06T09:10:57Z</time>
      </trkpt>
      <trkpt lat="44.74139" lon="3.35307">
        <ele>960</ele>
        <time>2009-07-06T09:11:09Z</time>
      </trkpt>
      <trkpt lat="44.74139" lon="3.35307">
        <ele>960</ele>
        <time>2009-07-06T09:12:10Z</time>
      </trkpt>
      <trkpt lat="44.74141" lon="3.35307">
        <ele>960</ele>
        <time>2009-07-06T09:13:14Z</time>
      </trkpt>
      <trkpt lat="44.74138" lon="3.35309">
        <ele>960</ele>
        <time>2009-07-06T09:26:51Z</time>
      </trkpt>
      <trkpt lat="44.74138" lon="3.35308">
        <ele>961</ele>
        <time>2009-07-06T09:27:04Z</time>
      </trkpt>
      <trkpt lat="44.74129" lon="3.35293">
        <ele>958</ele>
        <time>2009-07-06T09:27:10Z</time>
      </trkpt>
      <trkpt lat="44.74127" lon="3.35291">
        <ele>957</ele>
        <time>2009-07-06T09:27:11Z</time>
      </trkpt>
      <trkpt lat="44.74118" lon="3.35301">
        <ele>954</ele>
        <time>2009-07-06T09:27:16Z</time>
      </trkpt>
      <trkpt lat="44.74115" lon="3.35317">
        <ele>953</ele>
        <time>2009-07-06T09:27:19Z</time>
      </trkpt>
      <trkpt lat="44.74103" lon="3.35304">
        <ele>952</ele>
        <time>2009-07-06T09:27:24Z</time>
      </trkpt>
      <trkpt lat="44.74101" lon="3.35219">
        <ele>949</ele>
        <time>2009-07-06T09:27:35Z</time>
      </trkpt>
      <trkpt lat="44.74102" lon="3.35205">
        <ele>950</ele>
        <time>2009-07-06T09:27:37Z</time>
      </trkpt>
      <trkpt lat="44.74102" lon="3.35167">
        <ele>946</ele>
        <time>2009-07-06T09:27:42Z</time>
      </trkpt>
      <trkpt lat="44.74103" lon="3.3512">
        <ele>945</ele>
        <time>2009-07-06T09:27:48Z</time>
      </trkpt>
      <trkpt lat="44.7409" lon="3.35088">
        <ele>943</ele>
        <time>2009-07-06T09:27:52Z</time>
      </trkpt>
      <trkpt lat="44.74044" lon="3.35033">
        <ele>942</ele>
        <time>2009-07-06T09:28:00Z</time>
      </trkpt>
      <trkpt lat="44.74012" lon="3.34983">
        <ele>943</ele>
        <time>2009-07-06T09:28:07Z</time>
      </trkpt>
      <trkpt lat="44.7399" lon="3.34916">
        <ele>943</ele>
        <time>2009-07-06T09:28:18Z</time>
      </trkpt>
      <trkpt lat="44.73988" lon="3.3491">
        <ele>943</ele>
        <time>2009-07-06T09:28:19Z</time>
      </trkpt>
      <trkpt lat="44.73991" lon="3.34886">
        <ele>943</ele>
        <time>2009-07-06T09:28:23Z</time>
      </trkpt>
      <trkpt lat="44.74017" lon="3.34831">
        <ele>944</ele>
        <time>2009-07-06T09:28:33Z</time>
      </trkpt>
      <trkpt lat="44.7405" lon="3.34783">
        <ele>942</ele>
        <time>2009-07-06T09:28:44Z</time>
      </trkpt>
      <trkpt lat="44.74054" lon="3.34778">
        <ele>942</ele>
        <time>2009-07-06T09:28:45Z</time>
      </trkpt>
      <trkpt lat="44.74063" lon="3.34748">
        <ele>944</ele>
        <time>2009-07-06T09:28:51Z</time>
      </trkpt>
      <trkpt lat="44.74057" lon="3.34725">
        <ele>945</ele>
        <time>2009-07-06T09:28:57Z</time>
      </trkpt>
      <trkpt lat="44.74064" lon="3.347">
        <ele>949</ele>
        <time>2009-07-06T09:29:05Z</time>
      </trkpt>
      <trkpt lat="44.74066" lon="3.34697">
        <ele>948</ele>
        <time>2009-07-06T09:29:06Z</time>
      </trkpt>
      <trkpt lat="44.74083" lon="3.34643">
        <ele>952</ele>
        <time>2009-07-06T09:29:23Z</time>
      </trkpt>
      <trkpt lat="44.74089" lon="3.34595">
        <ele>955</ele>
        <time>2009-07-06T09:29:39Z</time>
      </trkpt>
      <trkpt lat="44.74082" lon="3.34568">
        <ele>958</ele>
        <time>2009-07-06T09:29:50Z</time>
      </trkpt>
      <trkpt lat="44.74059" lon="3.34551">
        <ele>962</ele>
        <time>2009-07-06T09:30:04Z</time>
      </trkpt>
      <trkpt lat="44.74043" lon="3.34546">
        <ele>965</ele>
        <time>2009-07-06T09:30:13Z</time>
      </trkpt>
      <trkpt lat="44.74036" lon="3.34544">
        <ele>966</ele>
        <time>2009-07-06T09:30:17Z</time>
      </trkpt>
      <trkpt lat="44.74001" lon="3.34548">
        <ele>969</ele>
        <time>2009-07-06T09:30:34Z</time>
      </trkpt>
      <trkpt lat="44.73965" lon="3.34563">
        <ele>973</ele>
        <time>2009-07-06T09:30:51Z</time>
      </trkpt>
      <trkpt lat="44.73935" lon="3.34566">
        <ele>976</ele>
        <time>2009-07-06T09:31:07Z</time>
      </trkpt>
      <trkpt lat="44.73918" lon="3.3455">
        <ele>979</ele>
        <time>2009-07-06T09:31:18Z</time>
      </trkpt>
      <trkpt lat="44.73895" lon="3.34531">
        <ele>983</ele>
        <time>2009-07-06T09:31:32Z</time>
      </trkpt>
      <trkpt lat="44.73878" lon="3.34516">
        <ele>986</ele>
        <time>2009-07-06T09:31:43Z</time>
      </trkpt>
      <trkpt lat="44.73858" lon="3.34498">
        <ele>990</ele>
        <time>2009-07-06T09:31:55Z</time>
      </trkpt>
      <trkpt lat="44.73842" lon="3.34485">
        <ele>993</ele>
        <time>2009-07-06T09:32:04Z</time>
      </trkpt>
      <trkpt lat="44.73815" lon="3.34464">
        <ele>996</ele>
        <time>2009-07-06T09:32:18Z</time>
      </trkpt>
      <trkpt lat="44.73774" lon="3.34436">
        <ele>997</ele>
        <time>2009-07-06T09:32:36Z</time>
      </trkpt>
      <trkpt lat="44.73754" lon="3.34412">
        <ele>1000</ele>
        <time>2009-07-06T09:32:47Z</time>
      </trkpt>
      <trkpt lat="44.73752" lon="3.3441">
        <ele>1001</ele>
        <time>2009-07-06T09:32:48Z</time>
      </trkpt>
      <trkpt lat="44.73733" lon="3.34371">
        <ele>1004</ele>
        <time>2009-07-06T09:33:02Z</time>
      </trkpt>
      <trkpt lat="44.73715" lon="3.34333">
        <ele>1007</ele>
        <time>2009-07-06T09:33:15Z</time>
      </trkpt>
      <trkpt lat="44.7369" lon="3.34286">
        <ele>1008</ele>
        <time>2009-07-06T09:33:33Z</time>
      </trkpt>
      <trkpt lat="44.73672" lon="3.34259">
        <ele>1008</ele>
        <time>2009-07-06T09:33:45Z</time>
      </trkpt>
      <trkpt lat="44.73671" lon="3.34258">
        <ele>1008</ele>
        <time>2009-07-06T09:34:16Z</time>
      </trkpt>
      <trkpt lat="44.7367" lon="3.34256">
        <ele>1008</ele>
        <time>2009-07-06T09:35:12Z</time>
      </trkpt>
      <trkpt lat="44.73669" lon="3.34257">
        <ele>1008</ele>
        <time>2009-07-06T09:36:01Z</time>
      </trkpt>
      <trkpt lat="44.73669" lon="3.34256">
        <ele>1007</ele>
        <time>2009-07-06T09:36:26Z</time>
      </trkpt>
      <trkpt lat="44.7367" lon="3.34256">
        <ele>1006</ele>
        <time>2009-07-06T09:37:07Z</time>
      </trkpt>
      <trkpt lat="44.73649" lon="3.34221">
        <ele>1006</ele>
        <time>2009-07-06T09:37:19Z</time>
      </trkpt>
      <trkpt lat="44.73643" lon="3.3421">
        <ele>1005</ele>
        <time>2009-07-06T09:37:21Z</time>
      </trkpt>
      <trkpt lat="44.73611" lon="3.3413">
        <ele>1004</ele>
        <time>2009-07-06T09:37:36Z</time>
      </trkpt>
      <trkpt lat="44.73583" lon="3.34103">
        <ele>1004</ele>
        <time>2009-07-06T09:37:47Z</time>
      </trkpt>
      <trkpt lat="44.73578" lon="3.34102">
        <ele>1004</ele>
        <time>2009-07-06T09:37:50Z</time>
      </trkpt>
      <trkpt lat="44.73563" lon="3.34088">
        <ele>1000</ele>
        <time>2009-07-06T09:37:54Z</time>
      </trkpt>
      <trkpt lat="44.73551" lon="3.34077">
        <ele>995</ele>
        <time>2009-07-06T09:37:56Z</time>
      </trkpt>
      <trkpt lat="44.73537" lon="3.34065">
        <ele>993</ele>
        <time>2009-07-06T09:37:58Z</time>
      </trkpt>
      <trkpt lat="44.7344" lon="3.34003">
        <ele>989</ele>
        <time>2009-07-06T09:38:10Z</time>
      </trkpt>
      <trkpt lat="44.73421" lon="3.33997">
        <ele>987</ele>
        <time>2009-07-06T09:38:13Z</time>
      </trkpt>
      <trkpt lat="44.73416" lon="3.33995">
        <ele>988</ele>
        <time>2009-07-06T09:38:14Z</time>
      </trkpt>
      <trkpt lat="44.73406" lon="3.33975">
        <ele>985</ele>
        <time>2009-07-06T09:38:19Z</time>
      </trkpt>
      <trkpt lat="44.7341" lon="3.33953">
        <ele>984</ele>
        <time>2009-07-06T09:38:23Z</time>
      </trkpt>
      <trkpt lat="44.73414" lon="3.33929">
        <ele>984</ele>
        <time>2009-07-06T09:38:27Z</time>
      </trkpt>
      <trkpt lat="44.73416" lon="3.33872">
        <ele>985</ele>
        <time>2009-07-06T09:38:41Z</time>
      </trkpt>
      <trkpt lat="44.7344" lon="3.33832">
        <ele>988</ele>
        <time>2009-07-06T09:38:52Z</time>
      </trkpt>
      <trkpt lat="44.73456" lon="3.33804">
        <ele>990</ele>
        <time>2009-07-06T09:39:00Z</time>
      </trkpt>
      <trkpt lat="44.73463" lon="3.33742">
        <ele>990</ele>
        <time>2009-07-06T09:39:13Z</time>
      </trkpt>
      <trkpt lat="44.73459" lon="3.33716">
        <ele>989</ele>
        <time>2009-07-06T09:39:18Z</time>
      </trkpt>
      <trkpt lat="44.7345" lon="3.33684">
        <ele>988</ele>
        <time>2009-07-06T09:39:23Z</time>
      </trkpt>
      <trkpt lat="44.73447" lon="3.33656">
        <ele>987</ele>
        <time>2009-07-06T09:39:27Z</time>
      </trkpt>
      <trkpt lat="44.73447" lon="3.33592">
        <ele>987</ele>
        <time>2009-07-06T09:39:37Z</time>
      </trkpt>
      <trkpt lat="44.73469" lon="3.33509">
        <ele>990</ele>
        <time>2009-07-06T09:39:53Z</time>
      </trkpt>
      <trkpt lat="44.7348" lon="3.33472">
        <ele>994</ele>
        <time>2009-07-06T09:40:02Z</time>
      </trkpt>
      <trkpt lat="44.73473" lon="3.3341">
        <ele>996</ele>
        <time>2009-07-06T09:40:16Z</time>
      </trkpt>
      <trkpt lat="44.73472" lon="3.33405">
        <ele>995</ele>
        <time>2009-07-06T09:40:17Z</time>
      </trkpt>
      <trkpt lat="44.73455" lon="3.33351">
        <ele>991</ele>
        <time>2009-07-06T09:40:24Z</time>
      </trkpt>
      <trkpt lat="44.7343" lon="3.33289">
        <ele>991</ele>
        <time>2009-07-06T09:40:32Z</time>
      </trkpt>
      <trkpt lat="44.73397" lon="3.33255">
        <ele>990</ele>
        <time>2009-07-06T09:40:39Z</time>
      </trkpt>
      <trkpt lat="44.7338" lon="3.33249">
        <ele>990</ele>
        <time>2009-07-06T09:40:42Z</time>
      </trkpt>
      <trkpt lat="44.73362" lon="3.33237">
        <ele>990</ele>
        <time>2009-07-06T09:40:46Z</time>
      </trkpt>
      <trkpt lat="44.73339" lon="3.33214">
        <ele>991</ele>
        <time>2009-07-06T09:40:52Z</time>
      </trkpt>
      <trkpt lat="44.73327" lon="3.33193">
        <ele>991</ele>
        <time>2009-07-06T09:40:56Z</time>
      </trkpt>
      <trkpt lat="44.73296" lon="3.33127">
        <ele>993</ele>
        <time>2009-07-06T09:41:09Z</time>
      </trkpt>
      <trkpt lat="44.73272" lon="3.33061">
        <ele>996</ele>
        <time>2009-07-06T09:41:21Z</time>
      </trkpt>
      <trkpt lat="44.73263" lon="3.33047">
        <ele>996</ele>
        <time>2009-07-06T09:41:24Z</time>
      </trkpt>
      <trkpt lat="44.73245" lon="3.33027">
        <ele>995</ele>
        <time>2009-07-06T09:41:29Z</time>
      </trkpt>
      <trkpt lat="44.73239" lon="3.33018">
        <ele>996</ele>
        <time>2009-07-06T09:41:31Z</time>
      </trkpt>
      <trkpt lat="44.73199" lon="3.32995">
        <ele>997</ele>
        <time>2009-07-06T09:41:41Z</time>
      </trkpt>
      <trkpt lat="44.73171" lon="3.32998">
        <ele>1001</ele>
        <time>2009-07-06T09:41:52Z</time>
      </trkpt>
      <trkpt lat="44.73169" lon="3.33">
        <ele>1001</ele>
        <time>2009-07-06T09:41:53Z</time>
      </trkpt>
      <trkpt lat="44.73156" lon="3.33018">
        <ele>1004</ele>
        <time>2009-07-06T09:42:01Z</time>
      </trkpt>
      <trkpt lat="44.73131" lon="3.33042">
        <ele>1008</ele>
        <time>2009-07-06T09:42:14Z</time>
      </trkpt>
      <trkpt lat="44.73122" lon="3.3304">
        <ele>1010</ele>
        <time>2009-07-06T09:42:18Z</time>
      </trkpt>
      <trkpt lat="44.73097" lon="3.33023">
        <ele>1013</ele>
        <time>2009-07-06T09:42:32Z</time>
      </trkpt>
      <trkpt lat="44.73079" lon="3.33005">
        <ele>1016</ele>
        <time>2009-07-06T09:42:42Z</time>
      </trkpt>
      <trkpt lat="44.73077" lon="3.33003">
        <ele>1016</ele>
        <time>2009-07-06T09:42:43Z</time>
      </trkpt>
      <trkpt lat="44.73047" lon="3.32993">
        <ele>1019</ele>
        <time>2009-07-06T09:42:57Z</time>
      </trkpt>
      <trkpt lat="44.7302" lon="3.32994">
        <ele>1022</ele>
        <time>2009-07-06T09:43:09Z</time>
      </trkpt>
      <trkpt lat="44.72987" lon="3.32995">
        <ele>1025</ele>
        <time>2009-07-06T09:43:23Z</time>
      </trkpt>
      <trkpt lat="44.72956" lon="3.32997">
        <ele>1028</ele>
        <time>2009-07-06T09:43:37Z</time>
      </trkpt>
      <trkpt lat="44.72948" lon="3.32995">
        <ele>1029</ele>
        <time>2009-07-06T09:43:41Z</time>
      </trkpt>
      <trkpt lat="44.72939" lon="3.32996">
        <ele>1030</ele>
        <time>2009-07-06T09:43:45Z</time>
      </trkpt>
      <trkpt lat="44.72921" lon="3.33008">
        <ele>1033</ele>
        <time>2009-07-06T09:43:54Z</time>
      </trkpt>
      <trkpt lat="44.72886" lon="3.33025">
        <ele>1037</ele>
        <time>2009-07-06T09:44:10Z</time>
      </trkpt>
      <trkpt lat="44.7286" lon="3.33037">
        <ele>1040</ele>
        <time>2009-07-06T09:44:22Z</time>
      </trkpt>
      <trkpt lat="44.72834" lon="3.33064">
        <ele>1043</ele>
        <time>2009-07-06T09:44:36Z</time>
      </trkpt>
      <trkpt lat="44.72807" lon="3.3309">
        <ele>1046</ele>
        <time>2009-07-06T09:44:49Z</time>
      </trkpt>
      <trkpt lat="44.72784" lon="3.33113">
        <ele>1050</ele>
        <time>2009-07-06T09:45:00Z</time>
      </trkpt>
      <trkpt lat="44.72742" lon="3.33141">
        <ele>1051</ele>
        <time>2009-07-06T09:45:16Z</time>
      </trkpt>
      <trkpt lat="44.72695" lon="3.3315">
        <ele>1049</ele>
        <time>2009-07-06T09:45:29Z</time>
      </trkpt>
      <trkpt lat="44.72691" lon="3.33152">
        <ele>1049</ele>
        <time>2009-07-06T09:45:30Z</time>
      </trkpt>
      <trkpt lat="44.72645" lon="3.33171">
        <ele>1048</ele>
        <time>2009-07-06T09:45:41Z</time>
      </trkpt>
      <trkpt lat="44.7262" lon="3.3318">
        <ele>1048</ele>
        <time>2009-07-06T09:45:47Z</time>
      </trkpt>
      <trkpt lat="44.72592" lon="3.33159">
        <ele>1049</ele>
        <time>2009-07-06T09:45:56Z</time>
      </trkpt>
      <trkpt lat="44.72585" lon="3.33147">
        <ele>1051</ele>
        <time>2009-07-06T09:45:59Z</time>
      </trkpt>
      <trkpt lat="44.72572" lon="3.33118">
        <ele>1055</ele>
        <time>2009-07-06T09:46:06Z</time>
      </trkpt>
      <trkpt lat="44.7257" lon="3.33115">
        <ele>1055</ele>
        <time>2009-07-06T09:46:07Z</time>
      </trkpt>
      <trkpt lat="44.72562" lon="3.33102">
        <ele>1056</ele>
        <time>2009-07-06T09:46:11Z</time>
      </trkpt>
      <trkpt lat="44.72558" lon="3.33096">
        <ele>1058</ele>
        <time>2009-07-06T09:46:13Z</time>
      </trkpt>
      <trkpt lat="44.72547" lon="3.3308">
        <ele>1060</ele>
        <time>2009-07-06T09:46:18Z</time>
      </trkpt>
      <trkpt lat="44.7253" lon="3.33051">
        <ele>1062</ele>
        <time>2009-07-06T09:46:26Z</time>
      </trkpt>
      <trkpt lat="44.72523" lon="3.33042">
        <ele>1063</ele>
        <time>2009-07-06T09:46:30Z</time>
      </trkpt>
      <trkpt lat="44.72514" lon="3.33026">
        <ele>1063</ele>
        <time>2009-07-06T09:46:35Z</time>
      </trkpt>
      <trkpt lat="44.72508" lon="3.3302">
        <ele>1063</ele>
        <time>2009-07-06T09:46:37Z</time>
      </trkpt>
      <trkpt lat="44.72502" lon="3.33011">
        <ele>1063</ele>
        <time>2009-07-06T09:46:40Z</time>
      </trkpt>
      <trkpt lat="44.72467" lon="3.32942">
        <ele>1062</ele>
        <time>2009-07-06T09:46:56Z</time>
      </trkpt>
      <trkpt lat="44.72453" lon="3.329">
        <ele>1060</ele>
        <time>2009-07-06T09:47:07Z</time>
      </trkpt>
      <trkpt lat="44.72437" lon="3.32856">
        <ele>1061</ele>
        <time>2009-07-06T09:47:19Z</time>
      </trkpt>
      <trkpt lat="44.72437" lon="3.32854">
        <ele>1061</ele>
        <time>2009-07-06T09:47:29Z</time>
      </trkpt>
      <trkpt lat="44.72438" lon="3.32855">
        <ele>1061</ele>
        <time>2009-07-06T09:47:46Z</time>
      </trkpt>
      <trkpt lat="44.7244" lon="3.32855">
        <ele>1061</ele>
        <time>2009-07-06T09:50:13Z</time>
      </trkpt>
      <trkpt lat="44.72441" lon="3.32854">
        <ele>1061</ele>
        <time>2009-07-06T09:50:30Z</time>
      </trkpt>
      <trkpt lat="44.72441" lon="3.32845">
        <ele>1060</ele>
        <time>2009-07-06T09:50:34Z</time>
      </trkpt>
      <trkpt lat="44.72422" lon="3.32779">
        <ele>1057</ele>
        <time>2009-07-06T09:50:49Z</time>
      </trkpt>
      <trkpt lat="44.72421" lon="3.32773">
        <ele>1057</ele>
        <time>2009-07-06T09:50:50Z</time>
      </trkpt>
      <trkpt lat="44.72393" lon="3.32677">
        <ele>1055</ele>
        <time>2009-07-06T09:51:04Z</time>
      </trkpt>
      <trkpt lat="44.72394" lon="3.32616">
        <ele>1055</ele>
        <time>2009-07-06T09:51:13Z</time>
      </trkpt>
      <trkpt lat="44.72396" lon="3.32582">
        <ele>1056</ele>
        <time>2009-07-06T09:51:18Z</time>
      </trkpt>
      <trkpt lat="44.72397" lon="3.32568">
        <ele>1056</ele>
        <time>2009-07-06T09:51:20Z</time>
      </trkpt>
      <trkpt lat="44.72413" lon="3.3244">
        <ele>1058</ele>
        <time>2009-07-06T09:51:41Z</time>
      </trkpt>
      <trkpt lat="44.72419" lon="3.32399">
        <ele>1059</ele>
        <time>2009-07-06T09:51:48Z</time>
      </trkpt>
      <trkpt lat="44.7243" lon="3.32324">
        <ele>1063</ele>
        <time>2009-07-06T09:52:01Z</time>
      </trkpt>
      <trkpt lat="44.72434" lon="3.32294">
        <ele>1060</ele>
        <time>2009-07-06T09:52:06Z</time>
      </trkpt>
      <trkpt lat="44.72433" lon="3.32184">
        <ele>1060</ele>
        <time>2009-07-06T09:52:21Z</time>
      </trkpt>
      <trkpt lat="44.72432" lon="3.32162">
        <ele>1058</ele>
        <time>2009-07-06T09:52:24Z</time>
      </trkpt>
      <trkpt lat="44.72432" lon="3.32148">
        <ele>1059</ele>
        <time>2009-07-06T09:52:26Z</time>
      </trkpt>
      <trkpt lat="44.7245" lon="3.32099">
        <ele>1059</ele>
        <time>2009-07-06T09:52:34Z</time>
      </trkpt>
      <trkpt lat="44.72481" lon="3.32052">
        <ele>1061</ele>
        <time>2009-07-06T09:52:44Z</time>
      </trkpt>
      <trkpt lat="44.72487" lon="3.32018">
        <ele>1060</ele>
        <time>2009-07-06T09:52:50Z</time>
      </trkpt>
      <trkpt lat="44.72498" lon="3.31928">
        <ele>1065</ele>
        <time>2009-07-06T09:53:07Z</time>
      </trkpt>
      <trkpt lat="44.725" lon="3.31922">
        <ele>1065</ele>
        <time>2009-07-06T09:53:08Z</time>
      </trkpt>
      <trkpt lat="44.72502" lon="3.31906">
        <ele>1065</ele>
        <time>2009-07-06T09:53:11Z</time>
      </trkpt>
      <trkpt lat="44.72506" lon="3.31849">
        <ele>1067</ele>
        <time>2009-07-06T09:53:21Z</time>
      </trkpt>
      <trkpt lat="44.72518" lon="3.31732">
        <ele>1066</ele>
        <time>2009-07-06T09:53:39Z</time>
      </trkpt>
      <trkpt lat="44.72517" lon="3.31688">
        <ele>1067</ele>
        <time>2009-07-06T09:53:49Z</time>
      </trkpt>
      <trkpt lat="44.72524" lon="3.3161">
        <ele>1071</ele>
        <time>2009-07-06T09:54:05Z</time>
      </trkpt>
      <trkpt lat="44.72525" lon="3.31606">
        <ele>1071</ele>
        <time>2009-07-06T09:54:06Z</time>
      </trkpt>
      <trkpt lat="44.72539" lon="3.31519">
        <ele>1073</ele>
        <time>2009-07-06T09:54:23Z</time>
      </trkpt>
      <trkpt lat="44.72541" lon="3.31439">
        <ele>1077</ele>
        <time>2009-07-06T09:54:38Z</time>
      </trkpt>
      <trkpt lat="44.72545" lon="3.31397">
        <ele>1078</ele>
        <time>2009-07-06T09:54:46Z</time>
      </trkpt>
      <trkpt lat="44.72552" lon="3.31303">
        <ele>1080</ele>
        <time>2009-07-06T09:55:04Z</time>
      </trkpt>
      <trkpt lat="44.72554" lon="3.31232">
        <ele>1083</ele>
        <time>2009-07-06T09:55:20Z</time>
      </trkpt>
      <trkpt lat="44.72557" lon="3.31178">
        <ele>1087</ele>
        <time>2009-07-06T09:55:33Z</time>
      </trkpt>
      <trkpt lat="44.72557" lon="3.31174">
        <ele>1087</ele>
        <time>2009-07-06T09:55:34Z</time>
      </trkpt>
      <trkpt lat="44.72556" lon="3.3114">
        <ele>1089</ele>
        <time>2009-07-06T09:55:44Z</time>
      </trkpt>
      <trkpt lat="44.72557" lon="3.3111">
        <ele>1093</ele>
        <time>2009-07-06T09:55:53Z</time>
      </trkpt>
      <trkpt lat="44.72557" lon="3.31106">
        <ele>1093</ele>
        <time>2009-07-06T09:55:54Z</time>
      </trkpt>
      <trkpt lat="44.72557" lon="3.31036">
        <ele>1092</ele>
        <time>2009-07-06T09:56:13Z</time>
      </trkpt>
      <trkpt lat="44.72557" lon="3.3095">
        <ele>1093</ele>
        <time>2009-07-06T09:56:31Z</time>
      </trkpt>
      <trkpt lat="44.72547" lon="3.30879">
        <ele>1096</ele>
        <time>2009-07-06T09:56:46Z</time>
      </trkpt>
      <trkpt lat="44.72531" lon="3.30808">
        <ele>1098</ele>
        <time>2009-07-06T09:57:02Z</time>
      </trkpt>
      <trkpt lat="44.72514" lon="3.3075">
        <ele>1101</ele>
        <time>2009-07-06T09:57:19Z</time>
      </trkpt>
      <trkpt lat="44.72483" lon="3.30747">
        <ele>1102</ele>
        <time>2009-07-06T09:57:31Z</time>
      </trkpt>
      <trkpt lat="44.72443" lon="3.3072">
        <ele>1103</ele>
        <time>2009-07-06T09:57:46Z</time>
      </trkpt>
      <trkpt lat="44.72406" lon="3.30658">
        <ele>1103</ele>
        <time>2009-07-06T09:58:03Z</time>
      </trkpt>
      <trkpt lat="44.72353" lon="3.30628">
        <ele>1104</ele>
        <time>2009-07-06T09:58:19Z</time>
      </trkpt>
      <trkpt lat="44.72287" lon="3.3059">
        <ele>1104</ele>
        <time>2009-07-06T09:58:38Z</time>
      </trkpt>
      <trkpt lat="44.72237" lon="3.30511">
        <ele>1104</ele>
        <time>2009-07-06T09:58:57Z</time>
      </trkpt>
      <trkpt lat="44.72197" lon="3.30441">
        <ele>1101</ele>
        <time>2009-07-06T09:59:09Z</time>
      </trkpt>
      <trkpt lat="44.72126" lon="3.30372">
        <ele>1100</ele>
        <time>2009-07-06T09:59:22Z</time>
      </trkpt>
      <trkpt lat="44.72105" lon="3.30342">
        <ele>1097</ele>
        <time>2009-07-06T09:59:26Z</time>
      </trkpt>
      <trkpt lat="44.72098" lon="3.30269">
        <ele>1096</ele>
        <time>2009-07-06T09:59:34Z</time>
      </trkpt>
      <trkpt lat="44.72101" lon="3.30255">
        <ele>1098</ele>
        <time>2009-07-06T09:59:36Z</time>
      </trkpt>
      <trkpt lat="44.72138" lon="3.30168">
        <ele>1099</ele>
        <time>2009-07-06T09:59:50Z</time>
      </trkpt>
      <trkpt lat="44.72137" lon="3.3015">
        <ele>1098</ele>
        <time>2009-07-06T09:59:58Z</time>
      </trkpt>
      <trkpt lat="44.72137" lon="3.30151">
        <ele>1098</ele>
        <time>2009-07-06T10:00:21Z</time>
      </trkpt>
      <trkpt lat="44.72124" lon="3.30161">
        <ele>1096</ele>
        <time>2009-07-06T10:00:44Z</time>
      </trkpt>
      <trkpt lat="44.72113" lon="3.30169">
        <ele>1093</ele>
        <time>2009-07-06T10:00:47Z</time>
      </trkpt>
      <trkpt lat="44.72093" lon="3.30189">
        <ele>1089</ele>
        <time>2009-07-06T10:00:51Z</time>
      </trkpt>
      <trkpt lat="44.72086" lon="3.30196">
        <ele>1088</ele>
        <time>2009-07-06T10:00:52Z</time>
      </trkpt>
      <trkpt lat="44.72063" lon="3.30231">
        <ele>1088</ele>
        <time>2009-07-06T10:00:56Z</time>
      </trkpt>
      <trkpt lat="44.72035" lon="3.30307">
        <ele>1084</ele>
        <time>2009-07-06T10:01:03Z</time>
      </trkpt>
      <trkpt lat="44.7203" lon="3.30377">
        <ele>1083</ele>
        <time>2009-07-06T10:01:09Z</time>
      </trkpt>
      <trkpt lat="44.72037" lon="3.30411">
        <ele>1081</ele>
        <time>2009-07-06T10:01:12Z</time>
      </trkpt>
      <trkpt lat="44.72047" lon="3.30457">
        <ele>1078</ele>
        <time>2009-07-06T10:01:16Z</time>
      </trkpt>
      <trkpt lat="44.72056" lon="3.30492">
        <ele>1075</ele>
        <time>2009-07-06T10:01:19Z</time>
      </trkpt>
      <trkpt lat="44.72059" lon="3.30503">
        <ele>1075</ele>
        <time>2009-07-06T10:01:20Z</time>
      </trkpt>
      <trkpt lat="44.72076" lon="3.30624">
        <ele>1077</ele>
        <time>2009-07-06T10:01:32Z</time>
      </trkpt>
      <trkpt lat="44.72078" lon="3.30633">
        <ele>1077</ele>
        <time>2009-07-06T10:01:33Z</time>
      </trkpt>
      <trkpt lat="44.72124" lon="3.30749">
        <ele>1073</ele>
        <time>2009-07-06T10:01:48Z</time>
      </trkpt>
      <trkpt lat="44.72133" lon="3.30769">
        <ele>1075</ele>
        <time>2009-07-06T10:01:51Z</time>
      </trkpt>
      <trkpt lat="44.72137" lon="3.30805">
        <ele>1076</ele>
        <time>2009-07-06T10:01:56Z</time>
      </trkpt>
      <trkpt lat="44.72133" lon="3.30826">
        <ele>1077</ele>
        <time>2009-07-06T10:01:59Z</time>
      </trkpt>
      <trkpt lat="44.72127" lon="3.30912">
        <ele>1080</ele>
        <time>2009-07-06T10:02:11Z</time>
      </trkpt>
      <trkpt lat="44.72123" lon="3.31001">
        <ele>1083</ele>
        <time>2009-07-06T10:02:25Z</time>
      </trkpt>
      <trkpt lat="44.72123" lon="3.31025">
        <ele>1085</ele>
        <time>2009-07-06T10:02:29Z</time>
      </trkpt>
      <trkpt lat="44.72139" lon="3.31074">
        <ele>1080</ele>
        <time>2009-07-06T10:02:37Z</time>
      </trkpt>
      <trkpt lat="44.72142" lon="3.31081">
        <ele>1080</ele>
        <time>2009-07-06T10:02:38Z</time>
      </trkpt>
      <trkpt lat="44.72166" lon="3.31148">
        <ele>1077</ele>
        <time>2009-07-06T10:02:46Z</time>
      </trkpt>
      <trkpt lat="44.72172" lon="3.31176">
        <ele>1076</ele>
        <time>2009-07-06T10:02:49Z</time>
      </trkpt>
      <trkpt lat="44.72165" lon="3.31233">
        <ele>1074</ele>
        <time>2009-07-06T10:02:55Z</time>
      </trkpt>
      <trkpt lat="44.72148" lon="3.31269">
        <ele>1074</ele>
        <time>2009-07-06T10:03:02Z</time>
      </trkpt>
      <trkpt lat="44.72139" lon="3.31261">
        <ele>1073</ele>
        <time>2009-07-06T10:03:15Z</time>
      </trkpt>
      <trkpt lat="44.7213" lon="3.31254">
        <ele>1073</ele>
        <time>2009-07-06T10:03:38Z</time>
      </trkpt>
      <trkpt lat="44.72089" lon="3.31301">
        <ele>1071</ele>
        <time>2009-07-06T10:03:52Z</time>
      </trkpt>
      <trkpt lat="44.7206" lon="3.31335">
        <ele>1068</ele>
        <time>2009-07-06T10:03:59Z</time>
      </trkpt>
      <trkpt lat="44.72044" lon="3.31354">
        <ele>1066</ele>
        <time>2009-07-06T10:04:02Z</time>
      </trkpt>
      <trkpt lat="44.72032" lon="3.31367">
        <ele>1067</ele>
        <time>2009-07-06T10:04:08Z</time>
      </trkpt>
      <trkpt lat="44.7203" lon="3.31366">
        <ele>1068</ele>
        <time>2009-07-06T10:04:11Z</time>
      </trkpt>
      <trkpt lat="44.72025" lon="3.31366">
        <ele>1066</ele>
        <time>2009-07-06T10:04:25Z</time>
      </trkpt>
      <trkpt lat="44.72025" lon="3.31367">
        <ele>1066</ele>
        <time>2009-07-06T10:04:27Z</time>
      </trkpt>
      <trkpt lat="44.72016" lon="3.31379">
        <ele>1066</ele>
        <time>2009-07-06T10:04:33Z</time>
      </trkpt>
      <trkpt lat="44.71996" lon="3.31402">
        <ele>1062</ele>
        <time>2009-07-06T10:04:39Z</time>
      </trkpt>
      <trkpt lat="44.71992" lon="3.31408">
        <ele>1061</ele>
        <time>2009-07-06T10:04:40Z</time>
      </trkpt>
      <trkpt lat="44.71975" lon="3.3143">
        <ele>1061</ele>
        <time>2009-07-06T10:04:44Z</time>
      </trkpt>
      <trkpt lat="44.71961" lon="3.3145">
        <ele>1061</ele>
        <time>2009-07-06T10:04:47Z</time>
      </trkpt>
      <trkpt lat="44.71954" lon="3.31481">
        <ele>1060</ele>
        <time>2009-07-06T10:04:51Z</time>
      </trkpt>
      <trkpt lat="44.71938" lon="3.31503">
        <ele>1060</ele>
        <time>2009-07-06T10:04:56Z</time>
      </trkpt>
      <trkpt lat="44.71906" lon="3.31521">
        <ele>1061</ele>
        <time>2009-07-06T10:05:04Z</time>
      </trkpt>
      <trkpt lat="44.71832" lon="3.31539">
        <ele>1062</ele>
        <time>2009-07-06T10:05:23Z</time>
      </trkpt>
      <trkpt lat="44.71812" lon="3.31562">
        <ele>1059</ele>
        <time>2009-07-06T10:05:28Z</time>
      </trkpt>
      <trkpt lat="44.71803" lon="3.31576">
        <ele>1058</ele>
        <time>2009-07-06T10:05:30Z</time>
      </trkpt>
      <trkpt lat="44.71774" lon="3.316">
        <ele>1059</ele>
        <time>2009-07-06T10:05:37Z</time>
      </trkpt>
      <trkpt lat="44.71769" lon="3.31601">
        <ele>1057</ele>
        <time>2009-07-06T10:05:50Z</time>
      </trkpt>
      <trkpt lat="44.71759" lon="3.31606">
        <ele>1054</ele>
        <time>2009-07-06T10:06:00Z</time>
      </trkpt>
      <trkpt lat="44.71753" lon="3.31609">
        <ele>1053</ele>
        <time>2009-07-06T10:06:02Z</time>
      </trkpt>
      <trkpt lat="44.71732" lon="3.31618">
        <ele>1049</ele>
        <time>2009-07-06T10:06:06Z</time>
      </trkpt>
      <trkpt lat="44.71726" lon="3.31621">
        <ele>1048</ele>
        <time>2009-07-06T10:06:07Z</time>
      </trkpt>
      <trkpt lat="44.71691" lon="3.31632">
        <ele>1045</ele>
        <time>2009-07-06T10:06:13Z</time>
      </trkpt>
      <trkpt lat="44.71684" lon="3.31628">
        <ele>1045</ele>
        <time>2009-07-06T10:06:22Z</time>
      </trkpt>
      <trkpt lat="44.71684" lon="3.31628">
        <ele>1045</ele>
        <time>2009-07-06T10:06:44Z</time>
      </trkpt>
      <trkpt lat="44.71683" lon="3.31627">
        <ele>1044</ele>
        <time>2009-07-06T10:06:54Z</time>
      </trkpt>
      <trkpt lat="44.71671" lon="3.31653">
        <ele>1043</ele>
        <time>2009-07-06T10:07:06Z</time>
      </trkpt>
      <trkpt lat="44.71638" lon="3.31721">
        <ele>1043</ele>
        <time>2009-07-06T10:07:21Z</time>
      </trkpt>
      <trkpt lat="44.71588" lon="3.31806">
        <ele>1046</ele>
        <time>2009-07-06T10:07:41Z</time>
      </trkpt>
      <trkpt lat="44.7156" lon="3.31835">
        <ele>1049</ele>
        <time>2009-07-06T10:07:53Z</time>
      </trkpt>
      <trkpt lat="44.7155" lon="3.31848">
        <ele>1052</ele>
        <time>2009-07-06T10:07:59Z</time>
      </trkpt>
      <trkpt lat="44.71534" lon="3.31873">
        <ele>1055</ele>
        <time>2009-07-06T10:08:10Z</time>
      </trkpt>
      <trkpt lat="44.71519" lon="3.31885">
        <ele>1057</ele>
        <time>2009-07-06T10:08:17Z</time>
      </trkpt>
      <trkpt lat="44.71492" lon="3.31904">
        <ele>1061</ele>
        <time>2009-07-06T10:08:29Z</time>
      </trkpt>
      <trkpt lat="44.71449" lon="3.3194">
        <ele>1063</ele>
        <time>2009-07-06T10:08:47Z</time>
      </trkpt>
      <trkpt lat="44.71419" lon="3.31994">
        <ele>1064</ele>
        <time>2009-07-06T10:09:03Z</time>
      </trkpt>
      <trkpt lat="44.71397" lon="3.32041">
        <ele>1062</ele>
        <time>2009-07-06T10:09:13Z</time>
      </trkpt>
      <trkpt lat="44.71391" lon="3.32062">
        <ele>1061</ele>
        <time>2009-07-06T10:09:16Z</time>
      </trkpt>
      <trkpt lat="44.71387" lon="3.32124">
        <ele>1060</ele>
        <time>2009-07-06T10:09:28Z</time>
      </trkpt>
      <trkpt lat="44.71388" lon="3.32148">
        <ele>1060</ele>
        <time>2009-07-06T10:10:12Z</time>
      </trkpt>
      <trkpt lat="44.71369" lon="3.32165">
        <ele>1058</ele>
        <time>2009-07-06T10:10:19Z</time>
      </trkpt>
      <trkpt lat="44.71362" lon="3.32161">
        <ele>1057</ele>
        <time>2009-07-06T10:10:21Z</time>
      </trkpt>
      <trkpt lat="44.71353" lon="3.32155">
        <ele>1057</ele>
        <time>2009-07-06T10:10:31Z</time>
      </trkpt>
      <trkpt lat="44.71335" lon="3.32166">
        <ele>1056</ele>
        <time>2009-07-06T10:10:47Z</time>
      </trkpt>
      <trkpt lat="44.7133" lon="3.32187">
        <ele>1054</ele>
        <time>2009-07-06T10:10:52Z</time>
      </trkpt>
      <trkpt lat="44.7131" lon="3.32203">
        <ele>1051</ele>
        <time>2009-07-06T10:10:58Z</time>
      </trkpt>
      <trkpt lat="44.713" lon="3.3221">
        <ele>1051</ele>
        <time>2009-07-06T10:11:00Z</time>
      </trkpt>
      <trkpt lat="44.71289" lon="3.32214">
        <ele>1050</ele>
        <time>2009-07-06T10:11:02Z</time>
      </trkpt>
      <trkpt lat="44.71267" lon="3.32215">
        <ele>1049</ele>
        <time>2009-07-06T10:11:06Z</time>
      </trkpt>
      <trkpt lat="44.7124" lon="3.32221">
        <ele>1048</ele>
        <time>2009-07-06T10:11:11Z</time>
      </trkpt>
      <trkpt lat="44.71201" lon="3.32258">
        <ele>1045</ele>
        <time>2009-07-06T10:11:18Z</time>
      </trkpt>
      <trkpt lat="44.71151" lon="3.32282">
        <ele>1042</ele>
        <time>2009-07-06T10:11:25Z</time>
      </trkpt>
      <trkpt lat="44.71129" lon="3.3229">
        <ele>1041</ele>
        <time>2009-07-06T10:11:28Z</time>
      </trkpt>
      <trkpt lat="44.71069" lon="3.32341">
        <ele>1037</ele>
        <time>2009-07-06T10:11:37Z</time>
      </trkpt>
      <trkpt lat="44.71062" lon="3.32349">
        <ele>1037</ele>
        <time>2009-07-06T10:11:38Z</time>
      </trkpt>
      <trkpt lat="44.71024" lon="3.32382">
        <ele>1034</ele>
        <time>2009-07-06T10:11:43Z</time>
      </trkpt>
      <trkpt lat="44.7097" lon="3.32461">
        <ele>1037</ele>
        <time>2009-07-06T10:11:54Z</time>
      </trkpt>
      <trkpt lat="44.70951" lon="3.32486">
        <ele>1039</ele>
        <time>2009-07-06T10:12:00Z</time>
      </trkpt>
      <trkpt lat="44.70931" lon="3.32506">
        <ele>1041</ele>
        <time>2009-07-06T10:12:06Z</time>
      </trkpt>
      <trkpt lat="44.70907" lon="3.32528">
        <ele>1043</ele>
        <time>2009-07-06T10:12:13Z</time>
      </trkpt>
      <trkpt lat="44.70837" lon="3.32542">
        <ele>1043</ele>
        <time>2009-07-06T10:12:29Z</time>
      </trkpt>
      <trkpt lat="44.70791" lon="3.32573">
        <ele>1045</ele>
        <time>2009-07-06T10:12:41Z</time>
      </trkpt>
      <trkpt lat="44.70772" lon="3.32584">
        <ele>1048</ele>
        <time>2009-07-06T10:12:48Z</time>
      </trkpt>
      <trkpt lat="44.70755" lon="3.32594">
        <ele>1051</ele>
        <time>2009-07-06T10:12:56Z</time>
      </trkpt>
      <trkpt lat="44.70739" lon="3.32603">
        <ele>1054</ele>
        <time>2009-07-06T10:13:03Z</time>
      </trkpt>
      <trkpt lat="44.70693" lon="3.32618">
        <ele>1057</ele>
        <time>2009-07-06T10:13:22Z</time>
      </trkpt>
      <trkpt lat="44.70649" lon="3.3265">
        <ele>1058</ele>
        <time>2009-07-06T10:13:38Z</time>
      </trkpt>
      <trkpt lat="44.70587" lon="3.32674">
        <ele>1060</ele>
        <time>2009-07-06T10:13:59Z</time>
      </trkpt>
      <trkpt lat="44.70549" lon="3.32689">
        <ele>1063</ele>
        <time>2009-07-06T10:14:12Z</time>
      </trkpt>
      <trkpt lat="44.70497" lon="3.32717">
        <ele>1065</ele>
        <time>2009-07-06T10:14:31Z</time>
      </trkpt>
      <trkpt lat="44.70462" lon="3.32716">
        <ele>1066</ele>
        <time>2009-07-06T10:14:42Z</time>
      </trkpt>
      <trkpt lat="44.70445" lon="3.32742">
        <ele>1066</ele>
        <time>2009-07-06T10:14:55Z</time>
      </trkpt>
      <trkpt lat="44.7041" lon="3.32793">
        <ele>1065</ele>
        <time>2009-07-06T10:15:09Z</time>
      </trkpt>
      <trkpt lat="44.70371" lon="3.32853">
        <ele>1062</ele>
        <time>2009-07-06T10:15:20Z</time>
      </trkpt>
      <trkpt lat="44.70364" lon="3.32865">
        <ele>1063</ele>
        <time>2009-07-06T10:15:22Z</time>
      </trkpt>
      <trkpt lat="44.70315" lon="3.32931">
        <ele>1063</ele>
        <time>2009-07-06T10:15:38Z</time>
      </trkpt>
      <trkpt lat="44.70264" lon="3.33011">
        <ele>1064</ele>
        <time>2009-07-06T10:15:55Z</time>
      </trkpt>
      <trkpt lat="44.7021" lon="3.33104">
        <ele>1062</ele>
        <time>2009-07-06T10:16:12Z</time>
      </trkpt>
      <trkpt lat="44.70137" lon="3.33207">
        <ele>1062</ele>
        <time>2009-07-06T10:16:33Z</time>
      </trkpt>
      <trkpt lat="44.7007" lon="3.33285">
        <ele>1064</ele>
        <time>2009-07-06T10:16:51Z</time>
      </trkpt>
      <trkpt lat="44.70062" lon="3.3329">
        <ele>1065</ele>
        <time>2009-07-06T10:16:53Z</time>
      </trkpt>
      <trkpt lat="44.70027" lon="3.33328">
        <ele>1067</ele>
        <time>2009-07-06T10:17:06Z</time>
      </trkpt>
      <trkpt lat="44.6998" lon="3.33389">
        <ele>1069</ele>
        <time>2009-07-06T10:17:25Z</time>
      </trkpt>
      <trkpt lat="44.69962" lon="3.33412">
        <ele>1068</ele>
        <time>2009-07-06T10:17:32Z</time>
      </trkpt>
      <trkpt lat="44.69954" lon="3.33432">
        <ele>1066</ele>
        <time>2009-07-06T10:17:36Z</time>
      </trkpt>
      <trkpt lat="44.69917" lon="3.33481">
        <ele>1065</ele>
        <time>2009-07-06T10:17:49Z</time>
      </trkpt>
      <trkpt lat="44.69905" lon="3.33491">
        <ele>1064</ele>
        <time>2009-07-06T10:17:52Z</time>
      </trkpt>
      <trkpt lat="44.6986" lon="3.33536">
        <ele>1060</ele>
        <time>2009-07-06T10:18:03Z</time>
      </trkpt>
      <trkpt lat="44.6984" lon="3.33557">
        <ele>1057</ele>
        <time>2009-07-06T10:18:07Z</time>
      </trkpt>
      <trkpt lat="44.69812" lon="3.3359">
        <ele>1057</ele>
        <time>2009-07-06T10:18:12Z</time>
      </trkpt>
      <trkpt lat="44.6979" lon="3.33617">
        <ele>1055</ele>
        <time>2009-07-06T10:18:16Z</time>
      </trkpt>
      <trkpt lat="44.69758" lon="3.33638">
        <ele>1052</ele>
        <time>2009-07-06T10:18:23Z</time>
      </trkpt>
      <trkpt lat="44.69752" lon="3.3364">
        <ele>1052</ele>
        <time>2009-07-06T10:18:24Z</time>
      </trkpt>
      <trkpt lat="44.69738" lon="3.33643">
        <ele>1050</ele>
        <time>2009-07-06T10:18:26Z</time>
      </trkpt>
      <trkpt lat="44.69707" lon="3.33649">
        <ele>1047</ele>
        <time>2009-07-06T10:18:30Z</time>
      </trkpt>
      <trkpt lat="44.69683" lon="3.33657">
        <ele>1045</ele>
        <time>2009-07-06T10:18:33Z</time>
      </trkpt>
      <trkpt lat="44.69661" lon="3.33665">
        <ele>1045</ele>
        <time>2009-07-06T10:18:36Z</time>
      </trkpt>
      <trkpt lat="44.69636" lon="3.3368">
        <ele>1045</ele>
        <time>2009-07-06T10:18:41Z</time>
      </trkpt>
      <trkpt lat="44.69601" lon="3.33699">
        <ele>1041</ele>
        <time>2009-07-06T10:18:47Z</time>
      </trkpt>
      <trkpt lat="44.69543" lon="3.33738">
        <ele>1038</ele>
        <time>2009-07-06T10:18:55Z</time>
      </trkpt>
      <trkpt lat="44.69535" lon="3.33746">
        <ele>1036</ele>
        <time>2009-07-06T10:18:56Z</time>
      </trkpt>
      <trkpt lat="44.69522" lon="3.33765">
        <ele>1034</ele>
        <time>2009-07-06T10:18:58Z</time>
      </trkpt>
      <trkpt lat="44.69506" lon="3.33799">
        <ele>1031</ele>
        <time>2009-07-06T10:19:01Z</time>
      </trkpt>
      <trkpt lat="44.69492" lon="3.33835">
        <ele>1030</ele>
        <time>2009-07-06T10:19:04Z</time>
      </trkpt>
      <trkpt lat="44.69486" lon="3.33885">
        <ele>1029</ele>
        <time>2009-07-06T10:19:08Z</time>
      </trkpt>
      <trkpt lat="44.69487" lon="3.33919">
        <ele>1030</ele>
        <time>2009-07-06T10:19:15Z</time>
      </trkpt>
      <trkpt lat="44.69488" lon="3.33924">
        <ele>1030</ele>
        <time>2009-07-06T10:19:31Z</time>
      </trkpt>
      <trkpt lat="44.69478" lon="3.33956">
        <ele>1028</ele>
        <time>2009-07-06T10:19:44Z</time>
      </trkpt>
      <trkpt lat="44.69473" lon="3.33967">
        <ele>1027</ele>
        <time>2009-07-06T10:19:46Z</time>
      </trkpt>
      <trkpt lat="44.69462" lon="3.34">
        <ele>1024</ele>
        <time>2009-07-06T10:19:51Z</time>
      </trkpt>
      <trkpt lat="44.69459" lon="3.34006">
        <ele>1024</ele>
        <time>2009-07-06T10:19:52Z</time>
      </trkpt>
      <trkpt lat="44.6945" lon="3.34027">
        <ele>1023</ele>
        <time>2009-07-06T10:19:55Z</time>
      </trkpt>
      <trkpt lat="44.69425" lon="3.34075">
        <ele>1020</ele>
        <time>2009-07-06T10:20:04Z</time>
      </trkpt>
      <trkpt lat="44.69422" lon="3.34078">
        <ele>1020</ele>
        <time>2009-07-06T10:20:06Z</time>
      </trkpt>
      <trkpt lat="44.69419" lon="3.34079">
        <ele>1020</ele>
        <time>2009-07-06T10:20:16Z</time>
      </trkpt>
      <trkpt lat="44.69415" lon="3.34083">
        <ele>1017</ele>
        <time>2009-07-06T10:20:28Z</time>
      </trkpt>
      <trkpt lat="44.69413" lon="3.34085">
        <ele>1015</ele>
        <time>2009-07-06T10:20:39Z</time>
      </trkpt>
      <trkpt lat="44.69412" lon="3.34087">
        <ele>1015</ele>
        <time>2009-07-06T10:20:41Z</time>
      </trkpt>
      <trkpt lat="44.69411" lon="3.34099">
        <ele>1013</ele>
        <time>2009-07-06T10:20:45Z</time>
      </trkpt>
      <trkpt lat="44.69412" lon="3.34107">
        <ele>1012</ele>
        <time>2009-07-06T10:20:47Z</time>
      </trkpt>
      <trkpt lat="44.6941" lon="3.3412">
        <ele>1009</ele>
        <time>2009-07-06T10:20:50Z</time>
      </trkpt>
      <trkpt lat="44.69405" lon="3.34138">
        <ele>1006</ele>
        <time>2009-07-06T10:20:55Z</time>
      </trkpt>
      <trkpt lat="44.69403" lon="3.34144">
        <ele>1005</ele>
        <time>2009-07-06T10:20:57Z</time>
      </trkpt>
      <trkpt lat="44.69401" lon="3.34148">
        <ele>1003</ele>
        <time>2009-07-06T10:21:09Z</time>
      </trkpt>
      <trkpt lat="44.69401" lon="3.3415">
        <ele>1002</ele>
        <time>2009-07-06T10:21:11Z</time>
      </trkpt>
      <trkpt lat="44.69395" lon="3.34169">
        <ele>999</ele>
        <time>2009-07-06T10:21:18Z</time>
      </trkpt>
      <trkpt lat="44.69393" lon="3.34173">
        <ele>999</ele>
        <time>2009-07-06T10:21:28Z</time>
      </trkpt>
      <trkpt lat="44.69393" lon="3.34177">
        <ele>999</ele>
        <time>2009-07-06T10:21:40Z</time>
      </trkpt>
      <trkpt lat="44.69388" lon="3.34188">
        <ele>995</ele>
        <time>2009-07-06T10:21:44Z</time>
      </trkpt>
      <trkpt lat="44.69384" lon="3.34197">
        <ele>994</ele>
        <time>2009-07-06T10:21:51Z</time>
      </trkpt>
      <trkpt lat="44.69379" lon="3.34199">
        <ele>993</ele>
        <time>2009-07-06T10:21:55Z</time>
      </trkpt>
      <trkpt lat="44.69366" lon="3.34196">
        <ele>992</ele>
        <time>2009-07-06T10:22:00Z</time>
      </trkpt>
      <trkpt lat="44.69359" lon="3.34204">
        <ele>991</ele>
        <time>2009-07-06T10:22:02Z</time>
      </trkpt>
      <trkpt lat="44.69356" lon="3.34217">
        <ele>989</ele>
        <time>2009-07-06T10:22:04Z</time>
      </trkpt>
      <trkpt lat="44.69349" lon="3.34251">
        <ele>989</ele>
        <time>2009-07-06T10:22:14Z</time>
      </trkpt>
      <trkpt lat="44.69349" lon="3.34253">
        <ele>989</ele>
        <time>2009-07-06T10:22:15Z</time>
      </trkpt>
      <trkpt lat="44.69358" lon="3.34258">
        <ele>988</ele>
        <time>2009-07-06T10:22:20Z</time>
      </trkpt>
      <trkpt lat="44.69399" lon="3.34279">
        <ele>989</ele>
        <time>2009-07-06T10:22:34Z</time>
      </trkpt>
      <trkpt lat="44.69426" lon="3.34285">
        <ele>990</ele>
        <time>2009-07-06T10:22:49Z</time>
      </trkpt>
      <trkpt lat="44.69419" lon="3.34281">
        <ele>990</ele>
        <time>2009-07-06T10:22:55Z</time>
      </trkpt>
      <trkpt lat="44.69389" lon="3.3428">
        <ele>989</ele>
        <time>2009-07-06T10:23:04Z</time>
      </trkpt>
      <trkpt lat="44.6937" lon="3.34294">
        <ele>987</ele>
        <time>2009-07-06T10:23:10Z</time>
      </trkpt>
      <trkpt lat="44.69357" lon="3.34293">
        <ele>987</ele>
        <time>2009-07-06T10:23:13Z</time>
      </trkpt>
      <trkpt lat="44.69347" lon="3.34314">
        <ele>986</ele>
        <time>2009-07-06T10:23:18Z</time>
      </trkpt>
      <trkpt lat="44.69352" lon="3.3433">
        <ele>986</ele>
        <time>2009-07-06T10:23:21Z</time>
      </trkpt>
      <trkpt lat="44.69351" lon="3.34361">
        <ele>987</ele>
        <time>2009-07-06T10:23:29Z</time>
      </trkpt>
      <trkpt lat="44.69354" lon="3.34374">
        <ele>986</ele>
        <time>2009-07-06T10:23:33Z</time>
      </trkpt>
      <trkpt lat="44.69357" lon="3.34377">
        <ele>985</ele>
        <time>2009-07-06T10:23:34Z</time>
      </trkpt>
      <trkpt lat="44.69376" lon="3.34393">
        <ele>985</ele>
        <time>2009-07-06T10:23:43Z</time>
      </trkpt>
    </trkseg>
  </trk>
</gpx>